Saito, Atsushi (2026): Radiosonde measurements from station Tateno (2026-02) [dataset]. Aerological Observatory, Japan Meteorological Agency, PANGAEA, https://doi.org/10.1594/PANGAEA.993239
Always quote citation above when using data! You can download the citation in several formats below.
Published: 2026-03-25 • DOI registered: 2026-04-23
Other version:
Saito, Atsushi (2026): BSRN Station-to-archive file for station Tateno (2026-02) [dataset]. ftp://ftp.bsrn.awi.de/tat/tat0226.dat.gz
Project(s):
Coverage:
Latitude: 36.058100 * Longitude: 140.125800
Date/Time Start: 2026-02-01T00:00:00 * Date/Time End: 2026-02-28T23:59:00
Minimum ALTITUDE: 26 m * Maximum ALTITUDE: 32957 m
Event(s):
TAT (Tateno) * Latitude: 36.058100 * Longitude: 140.125800 * Date/Time: 1996-02-01T00:00:00 * Elevation: 25.0 m * Station info: https://hdl.handle.net/10013/epic.44630.d027, update 2022: Tateno.pdf * Location: Japan * Method/Device: Monitoring station (MONS) * Comment: BSRN station no: 16; Surface type: grass; Topography type: flat, urban; Horizon: doi:10.1594/PANGAEA.669527; Station scientist: Atsushi Saito (saito-atsushi@met.kishou.go.jp)
Parameter(s):
| # | Name | Short Name | Unit | Principal Investigator | Method/Device | Comment |
|---|---|---|---|---|---|---|
| 1 | DATE/TIME | Date/Time | Saito, Atsushi | Geocode | ||
| 2 | ALTITUDE | Altitude | m | Saito, Atsushi | Geocode | |
| 3 | Pressure, at given altitude | PPPP | hPa | Saito, Atsushi | Radiosonde, Meisei, iMS | |
| 4 | Temperature, air | TTT | °C | Saito, Atsushi | Radiosonde, Meisei, iMS | |
| 5 | Dew/frost point | TdTdTd | °C | Saito, Atsushi | Radiosonde, Meisei, iMS | |
| 6 | Wind direction | dd | deg | Saito, Atsushi | Radiosonde, Meisei, iMS | |
| 7 | Wind speed | ff | m/s | Saito, Atsushi | Radiosonde, Meisei, iMS |
License:
Status:
Curation Level: Enhanced curation (CurationLevelC)
Size:
27112 data points
Data
| 1 Date/Time | 2 Altitude [m] | 3 PPPP [hPa] | 4 TTT [°C] | 5 TdTdTd [°C] | 6 dd [deg] | 7 ff [m/s] |
|---|---|---|---|---|---|---|
| 2026-02-01T00:00 | 9300 | 283 | -41.3 | |||
| 2026-02-01T00:00 | 9312 | 282 | 256 | 71 | ||
| 2026-02-01T00:00 | 9484 | 275 | -40.5 | |||
| 2026-02-01T00:00 | 9575 | 272 | 258 | 75 | ||
| 2026-02-01T00:01 | 9912 | 259 | 258 | 72 | ||
| 2026-02-01T00:02 | 10119 | 251 | -40.0 | |||
| 2026-02-01T00:02 | 10273 | 245 | 258 | 76 | ||
| 2026-02-01T00:03 | 10406 | 241 | -41.2 | |||
| 2026-02-01T00:03 | 10445 | 239 | 254 | 79 | ||
| 2026-02-01T00:03 | 10532 | 236 | -40.8 | |||
| 2026-02-01T00:03 | 10623 | 233 | -39.6 | |||
| 2026-02-01T00:04 | 10839 | 226 | 255 | 74 | ||
| 2026-02-01T00:04 | 10968 | 221 | -41.2 | |||
| 2026-02-01T00:04 | 11064 | 218 | 258 | 74 | ||
| 2026-02-01T00:05 | 11330 | 210 | -43.6 | |||
| 2026-02-01T00:05 | 11424 | 207 | 258 | 74 | ||
| 2026-02-01T00:06 | 11595 | 202 | 258 | 80 | ||
| 2026-02-01T00:06 | 11741 | 197 | 258 | 81 | ||
| 2026-02-01T00:06 | 11880 | 193 | -47.2 | |||
| 2026-02-01T00:07 | 11995 | 190 | 257 | 84 | ||
| 2026-02-01T00:08 | 12292 | 182 | -49.1 | |||
| 2026-02-01T00:08 | 12328 | 181 | 256 | 78 | ||
| 2026-02-01T00:08 | 12403 | 179 | -48.1 | |||
| 2026-02-01T00:09 | 12635 | 172 | 256 | 77 | ||
| 2026-02-01T00:09 | 12773 | 169 | -50.2 | |||
| 2026-02-01T00:10 | 12987 | 163 | 262 | 78 | ||
| 2026-02-01T00:11 | 13271 | 156 | 266 | 77 | ||
| 2026-02-01T00:12 | 13576 | 149 | -55.4 | |||
| 2026-02-01T00:12 | 13605 | 148 | 266 | 69 | ||
| 2026-02-01T00:12 | 13854 | 143 | -55.4 | |||
| 2026-02-01T00:13 | 13922 | 141 | 258 | 64 | ||
| 2026-02-01T00:14 | 14183 | 135 | 261 | 62 | ||
| 2026-02-01T00:14 | 14277 | 133 | -54.8 | |||
| 2026-02-01T00:15 | 14469 | 129 | 252 | 58 | ||
| 2026-02-01T00:15 | 14509 | 129 | -54.8 | |||
| 2026-02-01T00:16 | 14800 | 123 | 252 | 64 | ||
| 2026-02-01T00:16 | 15030 | 119 | -57.2 | |||
| 2026-02-01T00:17 | 15132 | 117 | 260 | 61 | ||
| 2026-02-01T00:17 | 15220 | 115 | -56.5 | |||
| 2026-02-01T00:18 | 15438 | 111 | 260 | 52 | ||
| 2026-02-01T00:18 | 15461 | 111 | -57.0 | |||
| 2026-02-01T00:18 | 15665 | 107 | -56.1 | |||
| 2026-02-01T00:19 | 15750 | 106 | 256 | 47 | ||
| 2026-02-01T00:19 | 15999 | 102 | -58.0 | |||
| 2026-02-01T00:19 | 16034 | 101 | 260 | 46 | ||
| 2026-02-01T00:20 | 16263 | 98 | -57.6 | |||
| 2026-02-01T00:20 | 16322 | 97 | 260 | 42 | ||
| 2026-02-01T00:20 | 16371 | 96 | -56.4 | |||
| 2026-02-01T00:21 | 16641 | 92 | 265 | 38 | ||
| 2026-02-01T00:22 | 16746 | 90 | -57.3 | |||
| 2026-02-01T00:22 | 16959 | 87 | 264 | 29 | ||
| 2026-02-01T00:23 | 17289 | 83 | 252 | 24 | ||
| 2026-02-01T00:24 | 17449 | 81 | -59.9 | |||
| 2026-02-01T00:24 | 17536 | 80 | 241 | 26 | ||
| 2026-02-01T00:25 | 17863 | 76 | -62.4 | |||
| 2026-02-01T00:25 | 17871 | 76 | 241 | 29 | ||
| 2026-02-01T00:26 | 18223 | 71 | 233 | 27 | ||
| 2026-02-01T00:27 | 18579 | 67 | 250 | 28 | ||
| 2026-02-01T00:27 | 18701 | 66 | -62.3 | |||
| 2026-02-01T00:28 | 18784 | 65 | -61.1 | |||
| 2026-02-01T00:28 | 18910 | 64 | 246 | 27 | ||
| 2026-02-01T00:29 | 19030 | 63 | -61.0 | |||
| 2026-02-01T00:29 | 19088 | 62 | 252 | 27 | ||
| 2026-02-01T00:29 | 19157 | 61 | -58.3 | |||
| 2026-02-01T00:29 | 19285 | 60 | 259 | 19 | ||
| 2026-02-01T00:30 | 19420 | 59 | -58.0 | |||
| 2026-02-01T00:30 | 19530 | 58 | 251 | 11 | ||
| 2026-02-01T00:31 | 19885 | 55 | 238 | 9 | ||
| 2026-02-01T00:32 | 20081 | 53 | -62.2 | |||
| 2026-02-01T00:32 | 20238 | 52 | 258 | 15 | ||
| 2026-02-01T00:32 | 20322 | 51 | -62.8 | |||
| 2026-02-01T00:33 | 20481 | 50 | -61.7 | |||
| 2026-02-01T00:33 | 20520 | 49 | 275 | 9 | ||
| 2026-02-01T00:33 | 20723 | 48 | 273 | 8 | ||
| 2026-02-01T00:34 | 20827 | 47 | 265 | 8 | ||
| 2026-02-01T00:34 | 20880 | 47 | -58.8 | |||
| 2026-02-01T00:34 | 20895 | 46 | 251 | 3 | ||
| 2026-02-01T00:34 | 21088 | 45 | 222 | 3 | ||
| 2026-02-01T00:35 | 21185 | 44 | -57.9 | |||
| 2026-02-01T00:35 | 21286 | 44 | 234 | 8 | ||
| 2026-02-01T00:36 | 21492 | 42 | -55.6 | 232 | 6 | |
| 2026-02-01T00:36 | 21786 | 40 | 261 | 2 | ||
| 2026-02-01T00:37 | 22110 | 38 | 266 | 4 | ||
| 2026-02-01T00:38 | 22228 | 38 | 190 | 3 | ||
| 2026-02-01T00:38 | 22434 | 36 | 186 | 7 | ||
| 2026-02-01T00:39 | 22646 | 35 | 209 | 7 | ||
| 2026-02-01T00:39 | 22807 | 34 | -57.7 | |||
| 2026-02-01T00:40 | 23012 | 33 | 201 | 7 | ||
| 2026-02-01T00:41 | 23306 | 32 | -56.6 | |||
| 2026-02-01T00:41 | 23327 | 32 | 213 | 7 | ||
| 2026-02-01T00:41 | 23427 | 31 | 183 | 4 | ||
| 2026-02-01T00:41 | 23529 | 31 | 133 | 4 | ||
| 2026-02-01T00:42 | 23658 | 30 | 146 | 5 | ||
| 2026-02-01T00:42 | 23848 | 29 | 193 | 7 | ||
| 2026-02-01T00:43 | 24024 | 28 | 164 | 5 | ||
| 2026-02-01T00:43 | 24068 | 28 | -57.3 | |||
| 2026-02-01T00:43 | 24135 | 28 | 155 | 6 | ||
| 2026-02-01T00:43 | 24322 | 27 | 192 | 6 | ||
| 2026-02-01T00:44 | 24485 | 26 | 140 | 5 | ||
| 2026-02-01T00:45 | 24756 | 25 | 123 | 7 | ||
| 2026-02-01T00:45 | 25040 | 24 | 151 | 7 | ||
| 2026-02-01T00:46 | 25202 | 24 | -54.8 | |||
| 2026-02-01T00:46 | 25340 | 23 | 134 | 5 | ||
| 2026-02-01T00:46 | 25450 | 23 | 112 | 7 | ||
| 2026-02-01T00:47 | 25742 | 22 | 125 | 4 | ||
| 2026-02-01T00:48 | 26043 | 21 | 90 | 9 | ||
| 2026-02-01T00:49 | 26366 | 20 | 120 | 7 | ||
| 2026-02-01T00:49 | 26634 | 19 | 98 | 12 | ||
| 2026-02-01T00:50 | 26879 | 18 | 132 | 11 | ||
| 2026-02-01T00:50 | 27024 | 18 | 120 | 10 | ||
| 2026-02-01T00:51 | 27170 | 17 | -51.7 | |||
| 2026-02-01T00:51 | 27247 | 17 | 127 | 11 | ||
| 2026-02-01T00:52 | 27634 | 16 | 108 | 11 | ||
| 2026-02-01T00:53 | 27923 | 15 | 110 | 7 | ||
| 2026-02-01T00:53 | 28051 | 15 | 100 | 8 | ||
| 2026-02-01T00:53 | 28137 | 15 | -51.4 | |||
| 2026-02-01T00:54 | 28224 | 15 | 101 | 12 | ||
| 2026-02-01T00:54 | 28446 | 14 | 103 | 17 | ||
| 2026-02-01T00:55 | 28633 | 14 | 108 | 11 | ||
| 2026-02-01T00:55 | 28823 | 13 | -52.0 | |||
| 2026-02-01T00:56 | 29070 | 13 | 108 | 14 | ||
| 2026-02-01T00:56 | 29384 | 12 | -50.3 | |||
| 2026-02-01T00:57 | 29490 | 12 | 100 | 15 | ||
| 2026-02-01T00:57 | 29655 | 12 | 108 | 19 | ||
| 2026-02-01T00:57 | 29823 | 12 | 107 | 16 | ||
| 2026-02-01T00:58 | 29993 | 11 | 105 | 19 | ||
| 2026-02-01T00:58 | 30111 | 11 | 106 | 16 | ||
| 2026-02-01T00:59 | 30291 | 11 | 102 | 18 | ||
| 2026-02-01T00:59 | 30415 | 11 | -50.0 | |||
| 2026-02-01T00:59 | 30476 | 10 | 98 | 17 | ||
| 2026-02-01T01:00 | 30797 | 10 | -49.2 | |||
| 2026-02-01T01:00 | 30933 | 10 | 114 | 18 | ||
| 2026-02-01T01:00 | 31039 | 10 | -45.1 | 108 | 16 | |
| 2026-02-01T11:33 | 26 | 1013 | 2.4 | -6.0 | 80 | 0 |
| 2026-02-01T11:33 | 33 | 1012 | 2.9 | -6.5 | 0 | 0 |
| 2026-02-01T11:33 | 79 | 1007 | 6.6 | -6.0 | ||
| 2026-02-01T11:33 | 106 | 1003 | 7.1 | -5.9 | ||
| 2026-02-01T11:33 | 138 | 999 | 58 | 4 | ||
| 2026-02-01T11:34 | 233 | 988 | 7.0 | -9.8 | ||
| 2026-02-01T11:34 | 238 | 987 | 64 | 1 | ||
| 2026-02-01T11:34 | 364 | 972 | 241 | 3 | ||
| 2026-02-01T11:35 | 607 | 944 | 4.1 | -10.7 | ||
| 2026-02-01T11:35 | 658 | 938 | 277 | 4 | ||
| 2026-02-01T11:35 | 794 | 922 | 248 | 4 | ||
| 2026-02-01T11:36 | 1001 | 899 | 279 | 4 | ||
| 2026-02-01T11:36 | 1189 | 878 | 273 | 4 | ||
| 2026-02-01T11:37 | 1536 | 840 | 267 | 4 | ||
| 2026-02-01T11:38 | 1699 | 823 | 251 | 4 | ||
| 2026-02-01T11:38 | 1777 | 815 | -7.2 | -12.1 | ||
| 2026-02-01T11:39 | 1948 | 797 | 273 | 3 | ||
| 2026-02-01T11:39 | 2029 | 789 | -9.4 | -12.8 | ||
| 2026-02-01T11:39 | 2035 | 788 | 271 | 4 | ||
| 2026-02-01T11:39 | 2212 | 770 | 262 | 7 | ||
| 2026-02-01T11:40 | 2447 | 747 | -12.6 | -15.3 | ||
| 2026-02-01T11:40 | 2516 | 740 | -13.0 | -16.5 | ||
| 2026-02-01T11:40 | 2546 | 737 | 271 | 13 | ||
| 2026-02-01T11:41 | 2598 | 732 | -13.1 | -18.8 | ||
| 2026-02-01T11:41 | 2681 | 724 | -12.7 | -20.7 | ||
| 2026-02-01T11:41 | 2896 | 704 | 281 | 18 | ||
| 2026-02-01T11:42 | 3083 | 687 | 283 | 18 | ||
| 2026-02-01T11:42 | 3169 | 679 | -14.0 | -25.0 | ||
| 2026-02-01T11:42 | 3227 | 674 | -13.9 | -25.5 | ||
| 2026-02-01T11:43 | 3316 | 666 | 279 | 25 | ||
| 2026-02-01T11:43 | 3397 | 659 | -14.0 | -27.5 | ||
| 2026-02-01T11:44 | 3653 | 637 | 282 | 24 | ||
| 2026-02-01T11:44 | 3794 | 626 | 277 | 26 | ||
| 2026-02-01T11:45 | 4082 | 602 | -18.8 | -35.7 | ||
| 2026-02-01T11:45 | 4145 | 597 | 274 | 26 | ||
| 2026-02-01T11:46 | 4483 | 570 | 272 | 24 | ||
| 2026-02-01T11:47 | 4799 | 546 | 270 | 26 | ||
| 2026-02-01T11:47 | 4903 | 538 | -25.7 | -43.6 | ||
| 2026-02-01T11:47 | 4937 | 536 | 265 | 27 | ||
| 2026-02-01T11:48 | 5269 | 512 | 271 | 27 | ||
| 2026-02-01T11:49 | 5328 | 507 | -28.9 | -50.2 | ||
| 2026-02-01T11:49 | 5463 | 498 | 263 | 29 | ||
| 2026-02-01T11:50 | 5733 | 479 | -31.7 | -51.0 | ||
| 2026-02-01T11:50 | 5812 | 474 | 260 | 30 | ||
| 2026-02-01T11:51 | 6022 | 460 | -34.1 | -50.2 | ||
| 2026-02-01T11:51 | 6086 | 456 | 265 | 31 | ||
| 2026-02-01T11:51 | 6197 | 449 | 259 | 34 | ||
| 2026-02-01T11:52 | 6421 | 435 | 261 | 36 | ||
| 2026-02-01T11:52 | 6543 | 427 | -37.2 | -58.5 | ||
| 2026-02-01T11:53 | 6743 | 415 | 263 | 38 | ||
| 2026-02-01T11:53 | 6796 | 411 | -38.6 | -60.6 | ||
| 2026-02-01T11:53 | 6908 | 405 | -38.7 | -61.7 | ||
| 2026-02-01T11:53 | 7105 | 393 | -40.0 | -61.7 | ||
| 2026-02-01T11:53 | 7136 | 392 | 268 | 40 | ||
| 2026-02-01T11:54 | 7268 | 384 | 265 | 40 | ||
| 2026-02-01T11:54 | 7368 | 378 | 270 | 40 | ||
| 2026-02-01T11:54 | 7387 | 377 | -42.0 | |||
| 2026-02-01T11:54 | 7492 | 372 | 268 | 44 | ||
| 2026-02-01T11:55 | 7577 | 367 | -43.0 | |||
| 2026-02-01T11:55 | 7668 | 362 | -41.9 | |||
| 2026-02-01T11:55 | 7800 | 355 | 270 | 52 | ||
| 2026-02-01T11:55 | 7822 | 354 | -41.8 | |||
| 2026-02-01T11:56 | 7979 | 346 | -42.5 | 272 | 55 | |
| 2026-02-01T11:57 | 8284 | 331 | 270 | 62 | ||
| 2026-02-01T11:57 | 8397 | 325 | -44.2 | |||
| 2026-02-01T11:58 | 8602 | 315 | -45.4 | |||
| 2026-02-01T11:58 | 8613 | 315 | 271 | 62 | ||
| 2026-02-01T11:58 | 8776 | 307 | -45.7 | |||
| 2026-02-01T11:59 | 8923 | 300 | -46.7 | |||
| 2026-02-01T11:59 | 8952 | 299 | 270 | 61 | ||
| 2026-02-01T11:59 | 9199 | 288 | 269 | 58 | ||
| 2026-02-01T11:59 | 9256 | 286 | -46.7 | |||
| 2026-02-01T12:00 | 9580 | 272 | 264 | 54 | ||
| 2026-02-01T12:01 | 9672 | 268 | -47.2 | |||
| 2026-02-01T12:01 | 9797 | 263 | -46.8 | |||
| 2026-02-01T12:01 | 9882 | 260 | 261 | 63 | ||
| 2026-02-01T12:01 | 9955 | 257 | -46.0 | |||
| 2026-02-01T12:02 | 10093 | 252 | -45.3 | |||
| 2026-02-01T12:02 | 10203 | 248 | -44.9 | |||
| 2026-02-01T12:02 | 10253 | 246 | 257 | 64 | ||
| 2026-02-01T12:02 | 10329 | 243 | -44.3 | |||
| 2026-02-01T12:03 | 10529 | 236 | -44.4 | |||
| 2026-02-01T12:03 | 10579 | 234 | 252 | 70 | ||
| 2026-02-01T12:04 | 10923 | 222 | 255 | 73 | ||
| 2026-02-01T12:04 | 10990 | 220 | -46.9 | |||
| 2026-02-01T12:05 | 11259 | 211 | -46.1 | |||
| 2026-02-01T12:05 | 11278 | 211 | 262 | 71 | ||
| 2026-02-01T12:06 | 11488 | 204 | 262 | 65 | ||
| 2026-02-01T12:06 | 11546 | 202 | -44.8 | |||
| 2026-02-01T12:07 | 11798 | 195 | 258 | 70 | ||
| 2026-02-01T12:07 | 11887 | 192 | -45.4 | |||
| 2026-02-01T12:07 | 12069 | 187 | -44.3 | |||
| 2026-02-01T12:08 | 12127 | 186 | 257 | 74 | ||
| 2026-02-01T12:08 | 12274 | 182 | 255 | 76 | ||
| 2026-02-01T12:09 | 12607 | 173 | -48.0 | |||
| 2026-02-01T12:09 | 12655 | 171 | 256 | 79 | ||
| 2026-02-01T12:10 | 12987 | 163 | -49.5 | |||
| 2026-02-01T12:10 | 13020 | 162 | 259 | 72 | ||
| 2026-02-01T12:11 | 13334 | 155 | -51.7 | |||
| 2026-02-01T12:11 | 13409 | 153 | 261 | 66 | ||
| 2026-02-01T12:12 | 13754 | 145 | 259 | 62 | ||
| 2026-02-01T12:12 | 13803 | 144 | -53.1 | |||
| 2026-02-01T12:13 | 14093 | 137 | 262 | 60 | ||
| 2026-02-01T12:14 | 14353 | 132 | -55.1 | |||
| 2026-02-01T12:14 | 14414 | 131 | 265 | 57 | ||
| 2026-02-01T12:15 | 14653 | 126 | -57.1 | |||
| 2026-02-01T12:15 | 14719 | 124 | 264 | 59 | ||
| 2026-02-01T12:16 | 14970 | 120 | -57.6 | |||
| 2026-02-01T12:16 | 15033 | 118 | 263 | 56 | ||
| 2026-02-01T12:16 | 15177 | 116 | -57.9 | |||
| 2026-02-01T12:17 | 15300 | 113 | 264 | 50 | ||
| 2026-02-01T12:17 | 15406 | 112 | -58.1 | |||
| 2026-02-01T12:17 | 15445 | 111 | 259 | 47 | ||
| 2026-02-01T12:17 | 15534 | 109 | -57.5 | |||
| 2026-02-01T12:18 | 15750 | 106 | 251 | 49 | ||
| 2026-02-01T12:18 | 15828 | 104 | -58.8 | |||
| 2026-02-01T12:19 | 16027 | 101 | -59.4 | |||
| 2026-02-01T12:19 | 16049 | 101 | 250 | 56 | ||
| 2026-02-01T12:20 | 16275 | 97 | -60.6 | |||
| 2026-02-01T12:20 | 16384 | 95 | 259 | 56 | ||
| 2026-02-01T12:20 | 16442 | 95 | -60.3 | |||
| 2026-02-01T12:21 | 16535 | 93 | -59.5 | |||
| 2026-02-01T12:21 | 16719 | 90 | 267 | 48 | ||
| 2026-02-01T12:22 | 16866 | 88 | -57.2 | 271 | 40 | |
| 2026-02-01T23:33 | 26 | 1014 | 1.9 | -3.8 | 260 | 1 |
| 2026-02-01T23:33 | 32 | 1013 | 1.4 | -5.1 | 0 | 0 |
| 2026-02-01T23:33 | 59 | 1010 | 0.5 | -5.9 | ||
| 2026-02-01T23:33 | 71 | 1009 | 253 | 3 | ||
| 2026-02-01T23:33 | 116 | 1003 | 0.7 | -7.3 | ||
| 2026-02-01T23:33 | 143 | 1000 | 305 | 4 | ||
| 2026-02-01T23:33 | 176 | 995 | 3.4 | -8.6 | ||
| 2026-02-01T23:34 | 216 | 991 | 3.9 | -5.8 | ||
| 2026-02-01T23:34 | 262 | 985 | 4.5 | -8.9 | ||
| 2026-02-01T23:34 | 313 | 979 | 314 | 4 | ||
| 2026-02-01T23:35 | 593 | 946 | 2.5 | -11.8 | 300 | 10 |
| 2026-02-01T23:35 | 738 | 929 | 1.9 | -10.6 | ||
| 2026-02-01T23:35 | 820 | 919 | 302 | 4 | ||
| 2026-02-01T23:35 | 920 | 908 | 0.4 | -7.8 | ||
| 2026-02-01T23:36 | 1052 | 893 | -0.7 | -11.7 | ||
| 2026-02-01T23:36 | 1194 | 877 | 274 | 4 | ||
| 2026-02-01T23:36 | 1250 | 871 | -2.6 | -8.9 | ||
| 2026-02-01T23:37 | 1456 | 849 | -4.5 | -8.3 | ||
| 2026-02-01T23:37 | 1557 | 838 | 250 | 6 | ||
| 2026-02-01T23:38 | 1923 | 799 | 234 | 7 | ||
| 2026-02-01T23:39 | 2120 | 779 | -10.6 | -11.5 | ||
| 2026-02-01T23:39 | 2230 | 768 | -10.6 | -15.5 | ||
| 2026-02-01T23:39 | 2288 | 762 | -10.1 | -19.5 | ||
| 2026-02-01T23:39 | 2307 | 761 | 264 | 7 | ||
| 2026-02-01T23:40 | 2428 | 749 | -10.9 | -21.0 | ||
| 2026-02-01T23:40 | 2524 | 739 | 244 | 9 | ||
| 2026-02-01T23:40 | 2581 | 734 | -11.4 | -21.8 | ||
| 2026-02-01T23:40 | 2655 | 727 | -11.2 | -22.7 | ||
| 2026-02-01T23:40 | 2748 | 718 | 259 | 13 | ||
| 2026-02-01T23:41 | 2820 | 712 | -12.1 | -23.8 | ||
| 2026-02-01T23:41 | 2896 | 704 | -11.9 | -25.3 | ||
| 2026-02-01T23:41 | 2937 | 701 | 264 | 15 | ||
| 2026-02-01T23:42 | 3274 | 670 | -13.4 | -31.1 | ||
| 2026-02-01T23:42 | 3292 | 669 | 267 | 21 | ||
| 2026-02-01T23:43 | 3658 | 637 | 267 | 22 | ||
| 2026-02-01T23:43 | 3875 | 619 | -18.1 | -36.7 | ||
| 2026-02-01T23:44 | 4039 | 605 | 261 | 23 | ||
| 2026-02-01T23:45 | 4335 | 582 | -21.8 | -38.3 | ||
| 2026-02-01T23:45 | 4401 | 576 | 255 | 24 | ||
| 2026-02-01T23:46 | 4758 | 549 | 259 | 25 | ||
| 2026-02-01T23:47 | 5109 | 523 | 261 | 26 | ||
| 2026-02-01T23:48 | 5392 | 503 | -30.4 | -46.6 | ||
| 2026-02-01T23:48 | 5478 | 497 | 265 | 28 | ||
| 2026-02-01T23:49 | 5842 | 472 | 263 | 30 | ||
| 2026-02-01T23:50 | 6084 | 456 | -34.9 | -53.7 | ||
| 2026-02-01T23:50 | 6208 | 448 | 262 | 35 | ||
| 2026-02-01T23:51 | 6479 | 431 | -37.5 | -57.2 | ||
| 2026-02-01T23:51 | 6577 | 424 | 261 | 36 | ||
| 2026-02-01T23:51 | 6614 | 422 | -37.9 | -59.1 | ||
| 2026-02-01T23:52 | 6956 | 402 | 260 | 39 | ||
| 2026-02-01T23:52 | 6982 | 400 | -40.0 | -60.8 | ||
| 2026-02-01T23:52 | 7125 | 392 | 262 | 42 | ||
| 2026-02-01T23:53 | 7254 | 384 | -41.3 | |||
| 2026-02-01T23:53 | 7260 | 384 | 263 | 43 | ||
| 2026-02-01T23:53 | 7522 | 370 | 264 | 51 | ||
| 2026-02-01T23:54 | 7681 | 361 | 264 | 51 | ||
| 2026-02-01T23:54 | 7896 | 349 | -43.4 | |||
| 2026-02-01T23:55 | 8069 | 341 | -43.1 | |||
| 2026-02-01T23:55 | 8096 | 339 | 264 | 62 | ||
| 2026-02-01T23:55 | 8385 | 325 | 262 | 65 | ||
| 2026-02-01T23:56 | 8577 | 316 | -45.5 | |||
| 2026-02-01T23:56 | 8666 | 312 | -44.8 | |||
| 2026-02-01T23:56 | 8696 | 310 | 262 | 61 | ||
| 2026-02-01T23:56 | 8757 | 307 | -44.5 | |||
| 2026-02-01T23:57 | 8816 | 305 | 260 | 63 | ||
| 2026-02-01T23:57 | 8870 | 302 | -45.1 | |||
| 2026-02-01T23:57 | 9129 | 291 | 262 | 67 | ||
| 2026-02-01T23:58 | 9310 | 283 | -46.3 | |||
| 2026-02-01T23:58 | 9378 | 280 | -45.4 | |||
| 2026-02-01T23:58 | 9457 | 277 | 257 | 61 | ||
| 2026-02-01T23:59 | 9658 | 268 | 253 | 64 | ||
| 2026-02-01T23:59 | 9686 | 267 | -46.7 | |||
| 2026-02-01T23:59 | 9843 | 261 | -46.9 | |||
| 2026-02-01T23:59 | 9880 | 260 | 250 | 69 | ||
| 2026-02-02T00:00 | 10023 | 254 | -45.8 | |||
| 2026-02-02T00:00 | 10079 | 252 | 249 | 73 | ||
| 2026-02-02T00:01 | 10475 | 237 | 255 | 69 | ||
| 2026-02-02T00:01 | 10559 | 234 | -47.6 | |||
| 2026-02-02T00:02 | 10832 | 225 | 258 | 66 | ||
| 2026-02-02T00:02 | 10944 | 221 | -46.9 | |||
| 2026-02-02T00:03 | 11186 | 213 | 253 | 71 | ||
| 2026-02-02T00:04 | 11482 | 204 | 252 | 73 | ||
| 2026-02-02T00:04 | 11488 | 204 | -49.2 | |||
| 2026-02-02T00:04 | 11731 | 196 | -47.2 | |||
| 2026-02-02T00:05 | 11886 | 192 | 257 | 75 | ||
| 2026-02-02T00:05 | 12161 | 184 | 256 | 74 | ||
| 2026-02-02T00:06 | 12272 | 181 | -50.4 | |||
| 2026-02-02T00:06 | 12555 | 173 | 256 | 65 | ||
| 2026-02-02T00:07 | 12791 | 167 | -52.7 | |||
| 2026-02-02T00:07 | 12841 | 166 | 256 | 65 | ||
| 2026-02-02T00:07 | 12972 | 162 | 257 | 71 | ||
| 2026-02-02T00:08 | 13294 | 154 | -53.2 | 260 | 66 | |
| 2026-02-02T00:09 | 13673 | 146 | 263 | 68 | ||
| 2026-02-02T00:09 | 13691 | 145 | -52.9 | |||
| 2026-02-02T00:10 | 14017 | 138 | 261 | 60 | ||
| 2026-02-02T00:10 | 14028 | 138 | -53.4 | |||
| 2026-02-02T00:11 | 14313 | 132 | -53.8 | |||
| 2026-02-02T00:11 | 14323 | 131 | 263 | 60 | ||
| 2026-02-02T00:12 | 14666 | 125 | 258 | 55 | ||
| 2026-02-02T00:12 | 14689 | 124 | -55.1 | |||
| 2026-02-02T00:13 | 14810 | 122 | -55.1 | |||
| 2026-02-02T00:13 | 14997 | 118 | 256 | 56 | ||
| 2026-02-02T00:14 | 15125 | 116 | -57.6 | |||
| 2026-02-02T00:14 | 15248 | 114 | -56.9 | |||
| 2026-02-02T00:14 | 15261 | 114 | 259 | 55 | ||
| 2026-02-02T00:15 | 15510 | 109 | -57.9 | |||
| 2026-02-02T00:15 | 15583 | 108 | 259 | 49 | ||
| 2026-02-02T00:16 | 15791 | 104 | -57.9 | |||
| 2026-02-02T00:16 | 15884 | 103 | 258 | 47 | ||
| 2026-02-02T00:16 | 15928 | 102 | -57.5 | |||
| 2026-02-02T00:17 | 16072 | 100 | 258 | 46 | ||
| 2026-02-02T00:17 | 16174 | 98 | -57.0 | |||
| 2026-02-02T00:18 | 16335 | 96 | -55.9 | |||
| 2026-02-02T00:18 | 16349 | 96 | 259 | 42 | ||
| 2026-02-02T00:19 | 16634 | 91 | 261 | 39 | ||
| 2026-02-02T00:19 | 16741 | 90 | -56.3 | |||
| 2026-02-02T00:19 | 16818 | 89 | 264 | 37 | ||
| 2026-02-02T00:20 | 17110 | 85 | 260 | 37 | ||
| 2026-02-02T00:21 | 17276 | 83 | -58.5 | |||
| 2026-02-02T00:21 | 17454 | 80 | 255 | 38 | ||
| 2026-02-02T00:22 | 17708 | 77 | -60.3 | |||
| 2026-02-02T00:22 | 17756 | 76 | 260 | 35 | ||
| 2026-02-02T00:23 | 17904 | 75 | 259 | 29 | ||
| 2026-02-02T00:23 | 17974 | 74 | -58.5 | |||
| 2026-02-02T00:23 | 18093 | 72 | -58.2 | |||
| 2026-02-02T00:24 | 18235 | 71 | 253 | 30 | ||
| 2026-02-02T00:24 | 18243 | 71 | -56.6 | |||
| 2026-02-02T00:25 | 18577 | 67 | 246 | 28 | ||
| 2026-02-02T00:26 | 18932 | 63 | 247 | 21 | ||
| 2026-02-02T00:26 | 19095 | 62 | -58.1 | |||
| 2026-02-02T00:27 | 19280 | 60 | 257 | 20 | ||
| 2026-02-02T00:28 | 19514 | 58 | -58.9 | |||
| 2026-02-02T00:28 | 19623 | 57 | 267 | 17 | ||
| 2026-02-02T00:28 | 19838 | 55 | -59.3 | |||
| 2026-02-02T00:28 | 19848 | 55 | 275 | 13 | ||
| 2026-02-02T00:29 | 20012 | 53 | -58.3 | |||
| 2026-02-02T00:29 | 20119 | 53 | 266 | 4 | ||
| 2026-02-02T00:30 | 20310 | 51 | 268 | 4 | ||
| 2026-02-02T00:30 | 20575 | 49 | 266 | 7 | ||
| 2026-02-02T00:31 | 20738 | 48 | -62.2 | 273 | 11 | |
| 2026-02-02T00:31 | 20833 | 47 | 264 | 4 | ||
| 2026-02-02T00:31 | 20887 | 46 | -57.1 | |||
| 2026-02-02T00:31 | 20915 | 46 | 220 | 6 | ||
| 2026-02-02T00:32 | 21136 | 45 | 220 | 13 | ||
| 2026-02-02T00:33 | 21426 | 43 | 252 | 8 | ||
| 2026-02-02T00:33 | 21532 | 42 | -56.3 | |||
| 2026-02-02T00:33 | 21653 | 41 | 259 | 7 | ||
| 2026-02-02T00:34 | 21778 | 40 | 238 | 6 | ||
| 2026-02-02T00:34 | 21855 | 40 | -56.8 | |||
| 2026-02-02T00:34 | 22036 | 39 | 275 | 6 | ||
| 2026-02-02T00:35 | 22100 | 38 | -57.3 | |||
| 2026-02-02T00:35 | 22352 | 37 | 266 | 2 | ||
| 2026-02-02T00:36 | 22471 | 36 | -58.9 | |||
| 2026-02-02T00:36 | 22506 | 36 | 263 | 6 | ||
| 2026-02-02T00:36 | 22592 | 35 | 272 | 6 | ||
| 2026-02-02T00:36 | 22794 | 34 | 223 | 6 | ||
| 2026-02-02T00:37 | 22854 | 34 | -53.6 | |||
| 2026-02-02T00:37 | 23042 | 33 | 255 | 2 | ||
| 2026-02-02T00:38 | 23201 | 32 | 246 | 5 | ||
| 2026-02-02T00:38 | 23442 | 31 | 289 | 7 | ||
| 2026-02-02T00:39 | 23758 | 30 | 324 | 4 | ||
| 2026-02-02T00:39 | 23866 | 29 | 326 | 3 | ||
| 2026-02-02T00:39 | 23932 | 29 | -55.7 | |||
| 2026-02-02T00:40 | 24160 | 28 | 98 | 3 | ||
| 2026-02-02T00:40 | 24252 | 27 | -54.6 | |||
| 2026-02-02T00:40 | 24299 | 27 | 97 | 2 | ||
| 2026-02-02T00:41 | 24588 | 26 | 151 | 5 | ||
| 2026-02-02T00:42 | 24763 | 25 | 160 | 4 | ||
| 2026-02-02T00:42 | 24916 | 25 | 150 | 3 | ||
| 2026-02-02T00:43 | 25078 | 24 | -54.3 | |||
| 2026-02-02T00:43 | 25156 | 24 | 64 | 4 | ||
| 2026-02-02T00:43 | 25376 | 23 | 60 | 2 | ||
| 2026-02-02T00:44 | 25492 | 23 | 106 | 4 | ||
| 2026-02-02T00:44 | 25691 | 22 | 93 | 7 | ||
| 2026-02-02T00:45 | 25900 | 21 | 98 | 5 | ||
| 2026-02-02T00:45 | 25993 | 21 | -53.5 | |||
| 2026-02-02T00:45 | 26214 | 20 | 107 | 8 | ||
| 2026-02-02T00:46 | 26407 | 20 | -51.9 | |||
| 2026-02-02T00:46 | 26440 | 19 | 129 | 5 | ||
| 2026-02-02T00:47 | 26646 | 19 | 109 | 7 | ||
| 2026-02-02T00:47 | 26750 | 19 | -50.4 | |||
| 2026-02-02T00:47 | 26893 | 18 | 111 | 13 | ||
| 2026-02-02T00:48 | 27112 | 18 | 115 | 11 | ||
| 2026-02-02T00:49 | 27496 | 17 | -50.7 | 98 | 14 | |
| 2026-02-02T00:49 | 27697 | 16 | 105 | 18 | ||
| 2026-02-02T00:50 | 28031 | 15 | 109 | 18 | ||
| 2026-02-02T00:50 | 28201 | 15 | 113 | 18 | ||
| 2026-02-02T00:51 | 28336 | 15 | 104 | 17 | ||
| 2026-02-02T00:51 | 28382 | 14 | -50.8 | |||
| 2026-02-02T00:51 | 28470 | 14 | 109 | 17 | ||
| 2026-02-02T00:52 | 28900 | 13 | 98 | 15 | ||
| 2026-02-02T00:53 | 29144 | 13 | 98 | 17 | ||
| 2026-02-02T00:54 | 29567 | 12 | 100 | 12 | ||
| 2026-02-02T00:54 | 29788 | 12 | 109 | 16 | ||
| 2026-02-02T00:55 | 29900 | 11 | 99 | 12 | ||
| 2026-02-02T00:55 | 29957 | 11 | -50.8 | |||
| 2026-02-02T00:55 | 30130 | 11 | 98 | 18 | ||
| 2026-02-02T00:56 | 30498 | 10 | 110 | 12 | ||
| 2026-02-02T00:56 | 30625 | 10 | 105 | 16 | ||
| 2026-02-02T00:57 | 30889 | 10 | 110 | 15 | ||
| 2026-02-02T00:58 | 31093 | 10 | 111 | 17 | ||
| 2026-02-02T00:58 | 31232 | 9 | -48.6 | |||
| 2026-02-02T00:58 | 31301 | 9 | 104 | 10 | ||
| 2026-02-02T00:59 | 31523 | 9 | 93 | 15 | ||
| 2026-02-02T00:59 | 31746 | 9 | 73 | 15 | ||
| 2026-02-02T00:59 | 31821 | 9 | 68 | 18 | ||
| 2026-02-02T01:00 | 31981 | 8 | -47.3 | 93 | 16 | |
| 2026-02-02T01:00 | 32072 | 8 | -46.0 | 93 | 21 | |
| 2026-02-02T11:33 | 26 | 1013 | 4.9 | -4.4 | 50 | 2 |
| 2026-02-02T11:33 | 31 | 1013 | 5.4 | -4.2 | 0 | 0 |
| 2026-02-02T11:33 | 63 | 1009 | 27 | 3 | ||
| 2026-02-02T11:34 | 220 | 990 | 38 | 11 | ||
| 2026-02-02T11:34 | 236 | 988 | 4.4 | -5.9 | ||
| 2026-02-02T11:34 | 332 | 976 | 3.9 | -2.1 | ||
| 2026-02-02T11:34 | 380 | 970 | 3.5 | 0.2 | ||
| 2026-02-02T11:34 | 434 | 964 | 68 | 9 | ||
| 2026-02-02T11:35 | 675 | 935 | 1.4 | -1.3 | ||
| 2026-02-02T11:35 | 738 | 928 | 72 | 8 | ||
| 2026-02-02T11:36 | 850 | 915 | 0.1 | -3.1 | ||
| 2026-02-02T11:36 | 861 | 914 | 76 | 4 | ||
| 2026-02-02T11:36 | 911 | 908 | 0.1 | -4.5 | ||
| 2026-02-02T11:36 | 928 | 906 | 84 | 2 | ||
| 2026-02-02T11:36 | 1017 | 896 | -0.8 | -6.2 | 158 | 3 |
| 2026-02-02T11:36 | 1142 | 882 | -1.8 | -6.4 | ||
| 2026-02-02T11:37 | 1216 | 874 | 264 | 3 | ||
| 2026-02-02T11:37 | 1350 | 860 | 272 | 3 | ||
| 2026-02-02T11:37 | 1387 | 855 | -3.8 | -8.3 | ||
| 2026-02-02T11:38 | 1583 | 835 | 293 | 4 | ||
| 2026-02-02T11:38 | 1603 | 832 | -5.7 | -11.6 | ||
| 2026-02-02T11:38 | 1666 | 826 | 289 | 4 | ||
| 2026-02-02T11:38 | 1745 | 817 | 308 | 4 | ||
| 2026-02-02T11:39 | 1840 | 807 | 302 | 4 | ||
| 2026-02-02T11:39 | 1952 | 796 | 319 | 3 | ||
| 2026-02-02T11:39 | 2072 | 784 | 293 | 4 | ||
| 2026-02-02T11:40 | 2226 | 768 | 299 | 5 | ||
| 2026-02-02T11:40 | 2316 | 759 | -12.0 | -15.5 | ||
| 2026-02-02T11:41 | 2486 | 743 | 287 | 8 | ||
| 2026-02-02T11:41 | 2740 | 718 | -15.6 | -19.3 | ||
| 2026-02-02T11:42 | 2821 | 710 | 291 | 9 | ||
| 2026-02-02T11:42 | 2850 | 708 | -16.5 | -21.0 | ||
| 2026-02-02T11:42 | 2984 | 695 | -17.9 | -22.5 | ||
| 2026-02-02T11:43 | 3152 | 680 | 292 | 13 | ||
| 2026-02-02T11:43 | 3158 | 679 | -19.3 | -28.0 | ||
| 2026-02-02T11:44 | 3465 | 652 | -21.6 | -30.9 | ||
| 2026-02-02T11:44 | 3476 | 651 | 288 | 12 | ||
| 2026-02-02T11:44 | 3736 | 628 | 275 | 11 | ||
| 2026-02-02T11:45 | 3774 | 625 | -23.4 | -30.9 | ||
| 2026-02-02T11:45 | 3968 | 609 | -24.5 | -27.7 | ||
| 2026-02-02T11:45 | 4032 | 603 | 239 | 14 | ||
| 2026-02-02T11:46 | 4097 | 598 | -24.8 | -28.2 | ||
| 2026-02-02T11:46 | 4181 | 591 | 245 | 18 | ||
| 2026-02-02T11:46 | 4198 | 590 | -25.7 | -29.6 | ||
| 2026-02-02T11:46 | 4275 | 583 | -26.4 | -30.7 | ||
| 2026-02-02T11:46 | 4358 | 577 | -27.1 | -33.2 | ||
| 2026-02-02T11:46 | 4427 | 571 | 259 | 18 | ||
| 2026-02-02T11:47 | 4508 | 565 | -28.6 | -34.1 | ||
| 2026-02-02T11:47 | 4727 | 548 | -30.5 | -36.3 | ||
| 2026-02-02T11:47 | 4737 | 547 | 267 | 20 | ||
| 2026-02-02T11:48 | 4861 | 538 | 273 | 23 | ||
| 2026-02-02T11:48 | 4866 | 537 | -30.5 | -42.2 | ||
| 2026-02-02T11:48 | 4910 | 534 | -29.4 | -49.8 | ||
| 2026-02-02T11:48 | 4990 | 528 | 266 | 32 | ||
| 2026-02-02T11:48 | 4995 | 528 | -28.9 | -55.3 | ||
| 2026-02-02T11:49 | 5153 | 516 | 265 | 30 | ||
| 2026-02-02T11:49 | 5221 | 511 | -29.9 | -57.5 | ||
| 2026-02-02T11:49 | 5356 | 501 | -30.6 | -51.6 | ||
| 2026-02-02T11:50 | 5504 | 491 | 254 | 34 | ||
| 2026-02-02T11:50 | 5699 | 478 | -32.9 | -55.1 | ||
| 2026-02-02T11:51 | 5769 | 473 | 251 | 36 | ||
| 2026-02-02T11:51 | 6002 | 458 | 250 | 38 | ||
| 2026-02-02T11:51 | 6014 | 457 | -34.5 | -58.4 | ||
| 2026-02-02T11:52 | 6134 | 449 | 249 | 41 | ||
| 2026-02-02T11:53 | 6483 | 427 | 251 | 38 | ||
| 2026-02-02T11:53 | 6524 | 424 | -36.8 | -64.5 | ||
| 2026-02-02T11:53 | 6667 | 416 | 257 | 42 | ||
| 2026-02-02T11:53 | 6673 | 415 | -37.1 | -64.7 | ||
| 2026-02-02T11:54 | 6990 | 397 | -38.4 | -64.0 | ||
| 2026-02-02T11:54 | 7006 | 396 | 255 | 42 | ||
| 2026-02-02T11:55 | 7204 | 385 | -40.0 | -63.9 | ||
| 2026-02-02T11:55 | 7327 | 378 | 257 | 44 | ||
| 2026-02-02T11:56 | 7502 | 368 | 256 | 47 | ||
| 2026-02-02T11:56 | 7616 | 362 | -41.3 | |||
| 2026-02-02T11:57 | 7868 | 349 | 254 | 51 | ||
| 2026-02-02T11:57 | 7900 | 347 | -42.0 | |||
| 2026-02-02T11:57 | 8069 | 339 | 255 | 51 | ||
| 2026-02-02T11:57 | 8121 | 336 | -43.0 | |||
| 2026-02-02T11:57 | 8181 | 333 | -42.6 | |||
| 2026-02-02T11:58 | 8452 | 320 | 253 | 55 | ||
| 2026-02-02T11:58 | 8513 | 317 | -45.1 | |||
| 2026-02-02T11:59 | 8623 | 312 | -44.9 | |||
| 2026-02-02T11:59 | 8753 | 306 | 257 | 51 | ||
| 2026-02-02T11:59 | 8787 | 304 | -44.4 | |||
| 2026-02-02T11:59 | 8887 | 300 | -43.9 | |||
| 2026-02-02T12:00 | 9059 | 292 | 254 | 54 | ||
| 2026-02-02T12:00 | 9109 | 290 | -42.8 | |||
| 2026-02-02T12:01 | 9419 | 277 | 254 | 58 | ||
| 2026-02-02T12:01 | 9425 | 277 | -44.8 | |||
| 2026-02-02T12:02 | 9739 | 264 | -43.5 | |||
| 2026-02-02T12:02 | 9782 | 262 | 255 | 58 | ||
| 2026-02-02T12:03 | 10136 | 249 | 253 | 58 | ||
| 2026-02-02T12:03 | 10154 | 248 | -43.0 | |||
| 2026-02-02T12:03 | 10353 | 241 | -43.3 | |||
| 2026-02-02T12:04 | 10413 | 239 | 253 | 59 | ||
| 2026-02-02T12:04 | 10696 | 229 | 254 | 62 | ||
| 2026-02-02T12:05 | 10776 | 226 | -43.5 | |||
| 2026-02-02T12:05 | 11112 | 215 | 250 | 59 | ||
| 2026-02-02T12:06 | 11319 | 209 | -45.5 | |||
| 2026-02-02T12:06 | 11488 | 203 | 255 | 62 | ||
| 2026-02-02T12:07 | 11821 | 193 | 256 | 64 | ||
| 2026-02-02T12:07 | 11879 | 192 | -48.4 | |||
| 2026-02-02T12:08 | 12035 | 187 | 258 | 63 | ||
| 2026-02-02T12:08 | 12166 | 183 | -47.9 | |||
| 2026-02-02T12:09 | 12321 | 179 | 259 | 63 | ||
| 2026-02-02T12:10 | 12619 | 171 | 260 | 64 | ||
| 2026-02-02T12:10 | 12700 | 169 | -49.2 | |||
| 2026-02-02T12:11 | 12819 | 166 | 260 | 58 | ||
| 2026-02-02T12:11 | 12978 | 162 | -49.0 | |||
| 2026-02-02T12:12 | 13153 | 158 | 258 | 54 | ||
| 2026-02-02T12:12 | 13418 | 152 | -51.0 | |||
| 2026-02-02T12:13 | 13515 | 149 | 251 | 52 | ||
| 2026-02-02T12:14 | 13853 | 142 | 250 | 52 | ||
| 2026-02-02T12:14 | 13931 | 140 | -54.3 | |||
| 2026-02-02T12:14 | 14086 | 137 | 252 | 55 | ||
| 2026-02-02T12:15 | 14269 | 133 | -55.4 | |||
| 2026-02-02T12:15 | 14377 | 131 | 252 | 58 | ||
| 2026-02-02T12:16 | 14667 | 125 | 258 | 58 | ||
| 2026-02-02T12:16 | 14717 | 124 | -56.7 | |||
| 2026-02-02T12:17 | 14972 | 119 | 253 | 55 | ||
| 2026-02-02T12:17 | 14998 | 118 | -57.8 | |||
| 2026-02-02T12:18 | 15287 | 113 | 260 | 54 | ||
| 2026-02-02T12:19 | 15368 | 112 | -58.8 | |||
| 2026-02-02T12:19 | 15617 | 107 | 261 | 49 | ||
| 2026-02-02T12:20 | 15831 | 104 | -59.3 | |||
| 2026-02-02T12:20 | 15952 | 102 | 259 | 49 | ||
| 2026-02-02T12:20 | 15996 | 101 | -59.6 | |||
| 2026-02-02T12:21 | 16281 | 97 | 261 | 49 | ||
| 2026-02-02T12:22 | 16414 | 95 | -59.6 | |||
| 2026-02-02T12:22 | 16608 | 92 | 263 | 52 | ||
| 2026-02-02T12:23 | 16931 | 87 | 267 | 44 | ||
| 2026-02-02T12:23 | 16965 | 87 | -59.7 | |||
| 2026-02-02T12:24 | 17151 | 84 | 268 | 40 | ||
| 2026-02-02T12:25 | 17467 | 80 | -57.8 | |||
| 2026-02-02T12:25 | 17491 | 80 | 267 | 41 | ||
| 2026-02-02T12:25 | 17635 | 78 | -56.1 | |||
| 2026-02-02T12:25 | 17692 | 77 | 270 | 36 | ||
| 2026-02-02T12:26 | 17734 | 77 | -54.5 | |||
| 2026-02-02T12:26 | 17997 | 74 | 262 | 29 | ||
| 2026-02-02T12:27 | 18181 | 71 | 247 | 30 | ||
| 2026-02-02T12:28 | 18527 | 68 | 253 | 34 | ||
| 2026-02-02T12:28 | 18620 | 67 | -58.5 | |||
| 2026-02-02T12:28 | 18732 | 65 | 255 | 27 | ||
| 2026-02-02T12:29 | 18831 | 64 | 243 | 22 | ||
| 2026-02-02T12:29 | 18860 | 64 | -56.2 | |||
| 2026-02-02T12:30 | 19095 | 62 | -55.7 | |||
| 2026-02-02T12:30 | 19144 | 61 | 233 | 24 | ||
| 2026-02-02T12:30 | 19262 | 60 | 252 | 20 | ||
| 2026-02-02T12:30 | 19294 | 60 | -51.7 | |||
| 2026-02-02T12:31 | 19583 | 57 | 260 | 21 | ||
| 2026-02-02T12:32 | 19880 | 55 | 275 | 18 | ||
| 2026-02-02T12:32 | 20009 | 54 | -55.1 | |||
| 2026-02-02T12:33 | 20169 | 52 | 289 | 13 | ||
| 2026-02-02T12:33 | 20400 | 50 | 305 | 11 | ||
| 2026-02-02T12:34 | 20615 | 49 | -60.0 | |||
| 2026-02-02T12:34 | 20693 | 48 | 296 | 9 | ||
| 2026-02-02T12:34 | 20769 | 48 | -58.6 | |||
| 2026-02-02T12:34 | 20823 | 47 | 328 | 9 | ||
| 2026-02-02T12:35 | 21122 | 45 | 295 | 10 | ||
| 2026-02-02T12:35 | 21168 | 45 | -59.4 | |||
| 2026-02-02T12:35 | 21291 | 44 | -58.4 | 280 | 13 | |
| 2026-02-02T12:36 | 21408 | 43 | -57.5 | |||
| 2026-02-02T12:36 | 21466 | 43 | 285 | 12 | ||
| 2026-02-02T12:37 | 21740 | 41 | -57.2 | |||
| 2026-02-02T12:37 | 21771 | 41 | 290 | 8 | ||
| 2026-02-02T12:37 | 22013 | 39 | -57.5 | |||
| 2026-02-02T12:38 | 22125 | 38 | 264 | 5 | ||
| 2026-02-02T12:38 | 22343 | 37 | 261 | 6 | ||
| 2026-02-02T12:39 | 22534 | 36 | -58.7 | |||
| 2026-02-02T12:39 | 22638 | 35 | 261 | 16 | ||
| 2026-02-02T12:39 | 22677 | 35 | -56.4 | |||
| 2026-02-02T12:40 | 22841 | 34 | -54.3 | |||
| 2026-02-02T12:40 | 22876 | 34 | 300 | 8 | ||
| 2026-02-02T12:40 | 23049 | 33 | 310 | 6 | ||
| 2026-02-02T12:41 | 23247 | 32 | 281 | 7 | ||
| 2026-02-02T12:41 | 23365 | 32 | -54.8 | |||
| 2026-02-02T12:41 | 23406 | 31 | 271 | 6 | ||
| 2026-02-02T12:42 | 23530 | 31 | 312 | 4 | ||
| 2026-02-02T12:42 | 23681 | 30 | 301 | 7 | ||
| 2026-02-02T12:42 | 23783 | 30 | -55.1 | |||
| 2026-02-02T12:43 | 23914 | 29 | 316 | 8 | ||
| 2026-02-02T12:44 | 24256 | 27 | 317 | 8 | ||
| 2026-02-02T12:44 | 24396 | 27 | 347 | 6 | ||
| 2026-02-02T12:44 | 24545 | 26 | 346 | 5 | ||
| 2026-02-02T12:45 | 24818 | 25 | 67 | 4 | ||
| 2026-02-02T12:45 | 24946 | 25 | 93 | 3 | ||
| 2026-02-02T12:46 | 24971 | 25 | -54.5 | |||
| 2026-02-02T12:46 | 25077 | 24 | 153 | 1 | ||
| 2026-02-02T12:46 | 25158 | 24 | 182 | 3 | ||
| 2026-02-02T12:46 | 25296 | 23 | 186 | 6 | ||
| 2026-02-02T12:47 | 25433 | 23 | 198 | 2 | ||
| 2026-02-02T12:47 | 25661 | 22 | 140 | 2 | ||
| 2026-02-02T12:48 | 25993 | 21 | 163 | 6 | ||
| 2026-02-02T12:48 | 26054 | 21 | 149 | 4 | ||
| 2026-02-02T12:48 | 26114 | 21 | 107 | 4 | ||
| 2026-02-02T12:49 | 26141 | 20 | -53.8 | 103 | 5 | |
| 2026-02-02T23:33 | 26 | 1019 | 3.2 | -4.7 | 300 | 1 |
| 2026-02-02T23:33 | 32 | 1018 | 2.8 | -5.8 | 342 | 1 |
| 2026-02-02T23:33 | 162 | 1002 | 1.1 | -6.9 | ||
| 2026-02-02T23:34 | 224 | 994 | 310 | 3 | ||
| 2026-02-02T23:34 | 356 | 978 | 356 | 2 | ||
| 2026-02-02T23:34 | 397 | 973 | 0.2 | -8.3 | ||
| 2026-02-02T23:34 | 484 | 962 | 48 | 3 | ||
| 2026-02-02T23:35 | 678 | 939 | 49 | 3 | ||
| 2026-02-02T23:35 | 803 | 925 | 28 | 4 | ||
| 2026-02-02T23:35 | 836 | 921 | -3.0 | -10.8 | ||
| 2026-02-02T23:36 | 936 | 909 | 343 | 6 | ||
| 2026-02-02T23:36 | 1143 | 886 | 335 | 6 | ||
| 2026-02-02T23:37 | 1220 | 877 | -6.4 | -12.5 | ||
| 2026-02-02T23:37 | 1393 | 858 | 315 | 6 | ||
| 2026-02-02T23:37 | 1444 | 852 | -7.3 | -16.0 | ||
| 2026-02-02T23:37 | 1534 | 842 | 339 | 5 | ||
| 2026-02-02T23:38 | 1625 | 833 | 326 | 3 | ||
| 2026-02-02T23:38 | 1654 | 829 | -8.4 | -18.5 | ||
| 2026-02-02T23:38 | 1729 | 821 | 71 | 3 | ||
| 2026-02-02T23:38 | 1796 | 814 | -8.1 | -22.3 | ||
| 2026-02-02T23:39 | 1954 | 798 | 78 | 5 | ||
| 2026-02-02T23:39 | 2028 | 790 | -9.4 | -24.6 | ||
| 2026-02-02T23:39 | 2074 | 786 | 71 | 1 | ||
| 2026-02-02T23:39 | 2183 | 775 | 15 | 4 | ||
| 2026-02-02T23:40 | 2303 | 763 | 352 | 5 | ||
| 2026-02-02T23:40 | 2391 | 754 | -12.0 | -26.5 | ||
| 2026-02-02T23:40 | 2454 | 748 | 357 | 10 | ||
| 2026-02-02T23:40 | 2474 | 746 | -11.8 | -29.3 | ||
| 2026-02-02T23:40 | 2512 | 742 | -11.6 | -30.1 | ||
| 2026-02-02T23:40 | 2588 | 735 | -10.6 | -33.8 | ||
| 2026-02-02T23:41 | 2749 | 720 | 351 | 10 | ||
| 2026-02-02T23:41 | 2842 | 711 | -12.0 | -36.6 | ||
| 2026-02-02T23:42 | 3045 | 692 | 343 | 9 | ||
| 2026-02-02T23:42 | 3154 | 682 | -14.2 | -32.3 | ||
| 2026-02-02T23:42 | 3222 | 676 | 336 | 10 | ||
| 2026-02-02T23:43 | 3432 | 658 | 331 | 9 | ||
| 2026-02-02T23:43 | 3592 | 644 | 335 | 10 | ||
| 2026-02-02T23:44 | 3737 | 631 | -19.3 | -37.2 | ||
| 2026-02-02T23:44 | 3807 | 626 | 320 | 8 | ||
| 2026-02-02T23:44 | 3916 | 616 | 324 | 7 | ||
| 2026-02-02T23:45 | 4024 | 607 | 337 | 6 | ||
| 2026-02-02T23:45 | 4129 | 599 | 332 | 7 | ||
| 2026-02-02T23:45 | 4253 | 589 | 309 | 8 | ||
| 2026-02-02T23:45 | 4288 | 586 | -24.2 | -40.4 | ||
| 2026-02-02T23:46 | 4353 | 581 | 325 | 9 | ||
| 2026-02-02T23:46 | 4468 | 572 | 310 | 13 | ||
| 2026-02-02T23:46 | 4530 | 567 | -25.1 | -44.9 | ||
| 2026-02-02T23:47 | 4700 | 554 | 297 | 13 | ||
| 2026-02-02T23:47 | 4765 | 549 | -26.7 | -47.6 | ||
| 2026-02-02T23:47 | 4858 | 542 | 306 | 12 | ||
| 2026-02-02T23:47 | 4949 | 535 | -27.6 | -50.9 | ||
| 2026-02-02T23:48 | 5203 | 516 | 317 | 15 | ||
| 2026-02-02T23:49 | 5428 | 500 | -30.8 | -51.7 | ||
| 2026-02-02T23:49 | 5573 | 490 | 307 | 17 | ||
| 2026-02-02T23:49 | 5748 | 478 | -33.0 | -56.1 | ||
| 2026-02-02T23:49 | 5800 | 474 | 297 | 14 | ||
| 2026-02-02T23:50 | 6071 | 457 | 298 | 16 | ||
| 2026-02-02T23:51 | 6254 | 445 | 301 | 18 | ||
| 2026-02-02T23:51 | 6427 | 434 | -37.8 | -59.0 | ||
| 2026-02-02T23:51 | 6433 | 433 | 284 | 18 | ||
| 2026-02-02T23:52 | 6714 | 416 | 287 | 20 | ||
| 2026-02-02T23:53 | 6847 | 408 | -40.0 | -63.9 | ||
| 2026-02-02T23:53 | 6882 | 406 | 282 | 22 | ||
| 2026-02-02T23:53 | 7037 | 397 | 289 | 22 | ||
| 2026-02-02T23:53 | 7090 | 394 | -41.6 | |||
| 2026-02-02T23:54 | 7378 | 377 | 296 | 25 | ||
| 2026-02-02T23:55 | 7567 | 367 | 285 | 23 | ||
| 2026-02-02T23:55 | 7884 | 350 | -45.7 | |||
| 2026-02-02T23:56 | 7976 | 345 | 277 | 26 | ||
| 2026-02-02T23:56 | 8126 | 337 | 281 | 25 | ||
| 2026-02-02T23:56 | 8280 | 329 | 281 | 26 | ||
| 2026-02-02T23:57 | 8357 | 326 | -49.0 | |||
| 2026-02-02T23:57 | 8634 | 312 | -50.9 | |||
| 2026-02-02T23:57 | 8704 | 309 | 286 | 30 | ||
| 2026-02-02T23:58 | 8858 | 302 | 281 | 29 | ||
| 2026-02-02T23:58 | 8890 | 300 | -52.4 | |||
| 2026-02-02T23:59 | 9223 | 285 | 283 | 27 | ||
| 2026-02-02T23:59 | 9336 | 280 | 277 | 28 | ||
| 2026-02-02T23:59 | 9367 | 279 | -50.9 | |||
| 2026-02-03T00:00 | 9661 | 266 | 277 | 33 | ||
| 2026-02-03T00:01 | 9896 | 257 | -48.3 | |||
| 2026-02-03T00:01 | 10046 | 251 | 271 | 35 | ||
| 2026-02-03T00:01 | 10060 | 251 | -47.6 | |||
| 2026-02-03T00:02 | 10294 | 242 | 270 | 37 | ||
| 2026-02-03T00:02 | 10480 | 235 | -46.8 | |||
| 2026-02-03T00:02 | 10590 | 232 | 263 | 38 | ||
| 2026-02-03T00:03 | 10919 | 220 | 268 | 43 | ||
| 2026-02-03T00:03 | 10945 | 219 | -48.8 | |||
| 2026-02-03T00:04 | 11260 | 209 | -48.3 | |||
| 2026-02-03T00:04 | 11311 | 208 | 263 | 43 | ||
| 2026-02-03T00:05 | 11552 | 200 | -49.1 | |||
| 2026-02-03T00:05 | 11697 | 196 | 266 | 46 | ||
| 2026-02-03T00:05 | 11808 | 192 | -49.5 | |||
| 2026-02-03T00:06 | 11914 | 189 | 263 | 49 | ||
| 2026-02-03T00:06 | 12122 | 183 | -50.6 | |||
| 2026-02-03T00:07 | 12313 | 178 | 268 | 53 | ||
| 2026-02-03T00:07 | 12511 | 173 | -51.3 | |||
| 2026-02-03T00:08 | 12750 | 166 | 269 | 51 | ||
| 2026-02-03T00:09 | 13127 | 157 | 272 | 48 | ||
| 2026-02-03T00:09 | 13255 | 154 | -51.3 | |||
| 2026-02-03T00:10 | 13433 | 150 | -50.5 | |||
| 2026-02-03T00:10 | 13497 | 148 | 269 | 48 | ||
| 2026-02-03T00:11 | 13802 | 142 | -52.0 | |||
| 2026-02-03T00:11 | 13818 | 141 | 270 | 48 | ||
| 2026-02-03T00:11 | 14060 | 136 | -52.5 | |||
| 2026-02-03T00:12 | 14075 | 136 | 267 | 47 | ||
| 2026-02-03T00:12 | 14188 | 133 | 268 | 44 | ||
| 2026-02-03T00:12 | 14253 | 132 | -52.3 | |||
| 2026-02-03T00:13 | 14510 | 127 | 271 | 46 | ||
| 2026-02-03T00:13 | 14545 | 126 | -53.8 | |||
| 2026-02-03T00:14 | 14844 | 120 | -54.4 | 263 | 42 | |
| 2026-02-03T00:14 | 15173 | 114 | -55.7 | |||
| 2026-02-03T00:15 | 15289 | 112 | 266 | 42 | ||
| 2026-02-03T00:15 | 15491 | 109 | -56.7 | |||
| 2026-02-03T00:15 | 15534 | 108 | 267 | 41 | ||
| 2026-02-03T00:16 | 15833 | 103 | 262 | 37 | ||
| 2026-02-03T00:17 | 15950 | 101 | -56.2 | |||
| 2026-02-03T00:17 | 16149 | 98 | 258 | 37 | ||
| 2026-02-03T00:18 | 16451 | 93 | 267 | 39 | ||
| 2026-02-03T00:19 | 16654 | 90 | -59.6 | |||
| 2026-02-03T00:19 | 16724 | 89 | 266 | 35 | ||
| 2026-02-03T00:20 | 17047 | 85 | -60.7 | |||
| 2026-02-03T00:20 | 17061 | 85 | 272 | 34 | ||
| 2026-02-03T00:21 | 17225 | 83 | -60.4 | |||
| 2026-02-03T00:21 | 17247 | 82 | 272 | 35 | ||
| 2026-02-03T00:21 | 17424 | 80 | -59.3 | 275 | 35 | |
| 2026-02-03T00:22 | 17560 | 78 | 281 | 30 | ||
| 2026-02-03T00:22 | 17584 | 78 | -57.1 | |||
| 2026-02-03T00:23 | 17815 | 75 | 276 | 23 | ||
| 2026-02-03T00:24 | 18136 | 71 | -55.8 | |||
| 2026-02-03T00:24 | 18171 | 71 | 244 | 23 | ||
| 2026-02-03T00:25 | 18546 | 67 | 233 | 25 | ||
| 2026-02-03T00:26 | 18911 | 63 | 243 | 27 | ||
| 2026-02-03T00:26 | 19039 | 62 | -61.4 | |||
| 2026-02-03T00:27 | 19282 | 59 | 259 | 29 | ||
| 2026-02-03T00:27 | 19433 | 58 | -60.7 | |||
| 2026-02-03T00:28 | 19531 | 57 | 266 | 27 | ||
| 2026-02-03T00:28 | 19581 | 57 | -59.0 | |||
| 2026-02-03T00:28 | 19696 | 56 | -57.7 | |||
| 2026-02-03T00:29 | 19858 | 54 | -58.0 | 291 | 23 | |
| 2026-02-03T00:29 | 20021 | 53 | -56.5 | |||
| 2026-02-03T00:29 | 20056 | 53 | 280 | 17 | ||
| 2026-02-03T00:30 | 20203 | 51 | -55.5 | |||
| 2026-02-03T00:30 | 20392 | 50 | 252 | 13 | ||
| 2026-02-03T00:31 | 20744 | 47 | 260 | 16 | ||
| 2026-02-03T00:32 | 21057 | 45 | -58.5 | 261 | 15 | |
| 2026-02-03T00:33 | 21287 | 43 | 278 | 10 | ||
| 2026-02-03T00:34 | 21568 | 41 | 283 | 11 | ||
| 2026-02-03T00:35 | 21915 | 39 | -59.7 | |||
| 2026-02-03T00:35 | 21930 | 39 | 273 | 16 | ||
| 2026-02-03T00:35 | 22108 | 38 | 285 | 14 | ||
| 2026-02-03T00:36 | 22241 | 37 | -58.4 | |||
| 2026-02-03T00:36 | 22259 | 37 | 313 | 9 | ||
| 2026-02-03T00:36 | 22344 | 37 | -57.5 | |||
| 2026-02-03T00:36 | 22554 | 35 | 336 | 4 | ||
| 2026-02-03T00:37 | 22732 | 34 | 327 | 3 | ||
| 2026-02-03T00:37 | 22953 | 33 | -59.9 | 240 | 5 | |
| 2026-02-03T00:38 | 23090 | 32 | 242 | 9 | ||
| 2026-02-03T00:38 | 23189 | 32 | -57.0 | |||
| 2026-02-03T00:38 | 23328 | 31 | 288 | 11 | ||
| 2026-02-03T00:39 | 23515 | 30 | 335 | 9 | ||
| 2026-02-03T00:39 | 23728 | 29 | 290 | 6 | ||
| 2026-02-03T00:40 | 24061 | 28 | 346 | 3 | ||
| 2026-02-03T00:41 | 24202 | 27 | 186 | 1 | ||
| 2026-02-03T00:41 | 24442 | 26 | -53.8 | |||
| 2026-02-03T00:42 | 24589 | 26 | 6 | 2 | ||
| 2026-02-03T00:42 | 24692 | 25 | 40 | 4 | ||
| 2026-02-03T00:43 | 24873 | 25 | -54.6 | |||
| 2026-02-03T00:43 | 24979 | 24 | 98 | 7 | ||
| 2026-02-03T00:43 | 25223 | 23 | 122 | 7 | ||
| 2026-02-03T00:44 | 25363 | 23 | 131 | 4 | ||
| 2026-02-03T00:44 | 25481 | 22 | 94 | 7 | ||
| 2026-02-03T00:44 | 25569 | 22 | -53.6 | |||
| 2026-02-03T00:45 | 25746 | 21 | 79 | 9 | ||
| 2026-02-03T00:45 | 25924 | 21 | 113 | 8 | ||
| 2026-02-03T00:46 | 26049 | 20 | -54.1 | |||
| 2026-02-03T00:46 | 26149 | 20 | 85 | 10 | ||
| 2026-02-03T00:47 | 26410 | 19 | 111 | 9 | ||
| 2026-02-03T00:47 | 26578 | 19 | 121 | 8 | ||
| 2026-02-03T00:47 | 26718 | 18 | 145 | 8 | ||
| 2026-02-03T00:48 | 26895 | 18 | 121 | 6 | ||
| 2026-02-03T00:48 | 27077 | 17 | 153 | 10 | ||
| 2026-02-03T00:49 | 27303 | 17 | 130 | 10 | ||
| 2026-02-03T00:49 | 27457 | 16 | 138 | 13 | ||
| 2026-02-03T00:50 | 27658 | 16 | -52.6 | |||
| 2026-02-03T00:50 | 27781 | 16 | 136 | 16 | ||
| 2026-02-03T00:51 | 27948 | 15 | 138 | 10 | ||
| 2026-02-03T00:51 | 28042 | 15 | -50.9 | 126 | 9 | |
| 2026-02-03T11:33 | 26 | 1020 | 1.2 | -6.6 | 100 | 0 |
| 2026-02-03T11:33 | 34 | 1019 | 1.7 | -7.6 | 0 | 0 |
| 2026-02-03T11:33 | 80 | 1013 | 4.5 | -7.3 | ||
| 2026-02-03T11:33 | 88 | 1012 | 149 | 2 | ||
| 2026-02-03T11:33 | 158 | 1004 | 5.6 | -6.6 | ||
| 2026-02-03T11:33 | 168 | 1003 | 171 | 8 | ||
| 2026-02-03T11:34 | 438 | 970 | 3.6 | -8.8 | ||
| 2026-02-03T11:34 | 497 | 963 | 179 | 8 | ||
| 2026-02-03T11:35 | 637 | 946 | 195 | 6 | ||
| 2026-02-03T11:35 | 759 | 932 | 206 | 4 | ||
| 2026-02-03T11:36 | 911 | 914 | 220 | 4 | ||
| 2026-02-03T11:36 | 1006 | 904 | 231 | 4 | ||
| 2026-02-03T11:36 | 1177 | 885 | 257 | 4 | ||
| 2026-02-03T11:36 | 1220 | 880 | -2.7 | -13.3 | ||
| 2026-02-03T11:37 | 1461 | 853 | 283 | 7 | ||
| 2026-02-03T11:38 | 1815 | 815 | 250 | 7 | ||
| 2026-02-03T11:38 | 1849 | 812 | -8.2 | -14.2 | ||
| 2026-02-03T11:39 | 1984 | 798 | 254 | 7 | ||
| 2026-02-03T11:39 | 2001 | 796 | -9.2 | -14.9 | ||
| 2026-02-03T11:39 | 2102 | 786 | -9.0 | -19.3 | ||
| 2026-02-03T11:39 | 2165 | 779 | 289 | 8 | ||
| 2026-02-03T11:39 | 2207 | 775 | -9.3 | -22.6 | ||
| 2026-02-03T11:39 | 2247 | 771 | -8.9 | -26.3 | ||
| 2026-02-03T11:40 | 2393 | 757 | -8.9 | -30.9 | ||
| 2026-02-03T11:40 | 2434 | 753 | -7.5 | -40.8 | ||
| 2026-02-03T11:40 | 2465 | 750 | 300 | 12 | ||
| 2026-02-03T11:40 | 2492 | 747 | -7.2 | -31.8 | ||
| 2026-02-03T11:41 | 2626 | 734 | -7.8 | -24.9 | ||
| 2026-02-03T11:41 | 2791 | 719 | 296 | 12 | ||
| 2026-02-03T11:42 | 2993 | 700 | 285 | 12 | ||
| 2026-02-03T11:42 | 3017 | 698 | -8.9 | -31.6 | ||
| 2026-02-03T11:43 | 3351 | 669 | 288 | 12 | ||
| 2026-02-03T11:43 | 3534 | 653 | 269 | 14 | ||
| 2026-02-03T11:44 | 3745 | 635 | -13.0 | -37.4 | ||
| 2026-02-03T11:44 | 3920 | 621 | 273 | 15 | ||
| 2026-02-03T11:45 | 4293 | 591 | 276 | 16 | ||
| 2026-02-03T11:46 | 4576 | 569 | 281 | 18 | ||
| 2026-02-03T11:46 | 4624 | 565 | -19.3 | -42.4 | ||
| 2026-02-03T11:47 | 4929 | 542 | 282 | 19 | ||
| 2026-02-03T11:48 | 5156 | 526 | 286 | 19 | ||
| 2026-02-03T11:48 | 5247 | 519 | 281 | 18 | ||
| 2026-02-03T11:48 | 5402 | 508 | -25.6 | -46.7 | ||
| 2026-02-03T11:49 | 5457 | 504 | 283 | 20 | ||
| 2026-02-03T11:50 | 5815 | 480 | 282 | 22 | ||
| 2026-02-03T11:51 | 6186 | 455 | 286 | 23 | ||
| 2026-02-03T11:51 | 6326 | 447 | 278 | 21 | ||
| 2026-02-03T11:52 | 6704 | 423 | -35.3 | -60.2 | 280 | 23 |
| 2026-02-03T11:53 | 6987 | 406 | -37.2 | -61.7 | ||
| 2026-02-03T11:53 | 7073 | 401 | 275 | 22 | ||
| 2026-02-03T11:53 | 7216 | 393 | 276 | 23 | ||
| 2026-02-03T11:54 | 7363 | 385 | -39.8 | -61.6 | ||
| 2026-02-03T11:54 | 7402 | 382 | -40.0 | -61.7 | ||
| 2026-02-03T11:54 | 7554 | 374 | 281 | 25 | ||
| 2026-02-03T11:55 | 7898 | 355 | -43.6 | |||
| 2026-02-03T11:55 | 7910 | 355 | 281 | 25 | ||
| 2026-02-03T11:56 | 8122 | 344 | 285 | 27 | ||
| 2026-02-03T11:57 | 8385 | 330 | -46.5 | |||
| 2026-02-03T11:57 | 8498 | 325 | 283 | 24 | ||
| 2026-02-03T11:57 | 8655 | 317 | -48.2 | |||
| 2026-02-03T11:58 | 8776 | 311 | 285 | 26 | ||
| 2026-02-03T11:59 | 9157 | 294 | 283 | 25 | ||
| 2026-02-03T11:59 | 9307 | 287 | -53.0 | |||
| 2026-02-03T12:00 | 9549 | 276 | 280 | 27 | ||
| 2026-02-03T12:00 | 9746 | 268 | 278 | 30 | ||
| 2026-02-03T12:00 | 9809 | 265 | -54.0 | |||
| 2026-02-03T12:00 | 9877 | 262 | 280 | 33 | ||
| 2026-02-03T12:01 | 10027 | 256 | 285 | 30 | ||
| 2026-02-03T12:01 | 10177 | 250 | -55.0 | |||
| 2026-02-03T12:01 | 10206 | 249 | 283 | 33 | ||
| 2026-02-03T12:02 | 10341 | 244 | -54.2 | |||
| 2026-02-03T12:02 | 10374 | 243 | 283 | 34 | ||
| 2026-02-03T12:03 | 10692 | 231 | -53.6 | |||
| 2026-02-03T12:03 | 10709 | 231 | 285 | 40 | ||
| 2026-02-03T12:04 | 11036 | 219 | 280 | 41 | ||
| 2026-02-03T12:04 | 11074 | 218 | -53.5 | |||
| 2026-02-03T12:04 | 11160 | 215 | -52.2 | |||
| 2026-02-03T12:05 | 11292 | 211 | 284 | 41 | ||
| 2026-02-03T12:05 | 11326 | 210 | -51.9 | |||
| 2026-02-03T12:05 | 11554 | 202 | -50.6 | |||
| 2026-02-03T12:06 | 11629 | 200 | 276 | 42 | ||
| 2026-02-03T12:06 | 11889 | 192 | -50.6 | |||
| 2026-02-03T12:07 | 11952 | 190 | 273 | 45 | ||
| 2026-02-03T12:08 | 12257 | 182 | 272 | 48 | ||
| 2026-02-03T12:08 | 12298 | 180 | -52.2 | |||
| 2026-02-03T12:08 | 12513 | 175 | -53.0 | |||
| 2026-02-03T12:09 | 12587 | 173 | 270 | 46 | ||
| 2026-02-03T12:10 | 12885 | 165 | 272 | 48 | ||
| 2026-02-03T12:10 | 13031 | 161 | -53.6 | |||
| 2026-02-03T12:11 | 13246 | 156 | 280 | 51 | ||
| 2026-02-03T12:11 | 13300 | 154 | -54.1 | |||
| 2026-02-03T12:12 | 13584 | 148 | 274 | 45 | ||
| 2026-02-03T12:12 | 13888 | 141 | 279 | 48 | ||
| 2026-02-03T12:13 | 13974 | 139 | -56.6 | |||
| 2026-02-03T12:13 | 14032 | 138 | 284 | 47 | ||
| 2026-02-03T12:13 | 14114 | 136 | -56.3 | |||
| 2026-02-03T12:14 | 14335 | 131 | 275 | 44 | ||
| 2026-02-03T12:15 | 14633 | 125 | -56.6 | |||
| 2026-02-03T12:15 | 14644 | 125 | 278 | 44 | ||
| 2026-02-03T12:16 | 14977 | 119 | 278 | 41 | ||
| 2026-02-03T12:16 | 15103 | 116 | -58.4 | |||
| 2026-02-03T12:17 | 15204 | 114 | 278 | 43 | ||
| 2026-02-03T12:17 | 15304 | 113 | -58.7 | |||
| 2026-02-03T12:18 | 15529 | 109 | 273 | 44 | ||
| 2026-02-03T12:18 | 15662 | 106 | -59.1 | |||
| 2026-02-03T12:18 | 15764 | 105 | -58.6 | |||
| 2026-02-03T12:19 | 15851 | 103 | 276 | 41 | ||
| 2026-02-03T12:20 | 16171 | 98 | 277 | 43 | ||
| 2026-02-03T12:20 | 16373 | 95 | 282 | 42 | ||
| 2026-02-03T12:20 | 16434 | 94 | -57.8 | |||
| 2026-02-03T12:21 | 16679 | 90 | 279 | 40 | ||
| 2026-02-03T12:22 | 16896 | 87 | -58.7 | |||
| 2026-02-03T12:22 | 16955 | 87 | 278 | 36 | ||
| 2026-02-03T12:23 | 17081 | 85 | 278 | 32 | ||
| 2026-02-03T12:23 | 17254 | 83 | 281 | 34 | ||
| 2026-02-03T12:23 | 17386 | 81 | -57.6 | |||
| 2026-02-03T12:24 | 17559 | 79 | 276 | 27 | ||
| 2026-02-03T12:25 | 17855 | 75 | 276 | 23 | ||
| 2026-02-03T12:26 | 18199 | 71 | 274 | 24 | ||
| 2026-02-03T12:27 | 18545 | 67 | 257 | 18 | ||
| 2026-02-03T12:27 | 18630 | 66 | -59.0 | |||
| 2026-02-03T12:28 | 18887 | 64 | 260 | 24 | ||
| 2026-02-03T12:29 | 19221 | 60 | 272 | 27 | ||
| 2026-02-03T12:29 | 19379 | 59 | -60.2 | |||
| 2026-02-03T12:30 | 19477 | 58 | 284 | 25 | ||
| 2026-02-03T12:30 | 19627 | 57 | -58.0 | |||
| 2026-02-03T12:30 | 19751 | 55 | 276 | 15 | ||
| 2026-02-03T12:31 | 19880 | 54 | -58.3 | |||
| 2026-02-03T12:31 | 19960 | 54 | 260 | 17 | ||
| 2026-02-03T12:32 | 20126 | 52 | 270 | 22 | ||
| 2026-02-03T12:32 | 20139 | 52 | -57.8 | |||
| 2026-02-03T12:32 | 20225 | 51 | -55.5 | |||
| 2026-02-03T12:32 | 20413 | 50 | 273 | 11 | ||
| 2026-02-03T12:33 | 20766 | 47 | 229 | 12 | ||
| 2026-02-03T12:34 | 21122 | 45 | 257 | 16 | ||
| 2026-02-03T12:35 | 21150 | 44 | -58.5 | |||
| 2026-02-03T12:35 | 21266 | 44 | 273 | 15 | ||
| 2026-02-03T12:35 | 21458 | 42 | -56.0 | |||
| 2026-02-03T12:36 | 21611 | 41 | 291 | 7 | ||
| 2026-02-03T12:36 | 21827 | 40 | 294 | 4 | ||
| 2026-02-03T12:37 | 21974 | 39 | 273 | 4 | ||
| 2026-02-03T12:37 | 21990 | 39 | -57.4 | |||
| 2026-02-03T12:37 | 22039 | 39 | 261 | 1 | ||
| 2026-02-03T12:37 | 22121 | 38 | -56.3 | |||
| 2026-02-03T12:37 | 22206 | 38 | 172 | 3 | ||
| 2026-02-03T12:38 | 22427 | 36 | 221 | 6 | ||
| 2026-02-03T12:38 | 22444 | 36 | -57.2 | |||
| 2026-02-03T12:39 | 22640 | 35 | 276 | 7 | ||
| 2026-02-03T12:39 | 22735 | 35 | -56.0 | |||
| 2026-02-03T12:40 | 22972 | 33 | 293 | 8 | ||
| 2026-02-03T12:40 | 23246 | 32 | 269 | 5 | ||
| 2026-02-03T12:41 | 23304 | 32 | -58.0 | |||
| 2026-02-03T12:41 | 23384 | 31 | 201 | 5 | ||
| 2026-02-03T12:41 | 23655 | 30 | 235 | 11 | ||
| 2026-02-03T12:43 | 24048 | 28 | 273 | 3 | ||
| 2026-02-03T12:43 | 24303 | 27 | 344 | 3 | ||
| 2026-02-03T12:44 | 24692 | 25 | 292 | 6 | ||
| 2026-02-03T12:45 | 25003 | 24 | -54.5 | |||
| 2026-02-03T12:45 | 25084 | 24 | 333 | 10 | ||
| 2026-02-03T12:46 | 25300 | 23 | -54.5 | |||
| 2026-02-03T12:46 | 25468 | 23 | 7 | 4 | ||
| 2026-02-03T12:47 | 25639 | 22 | 342 | 7 | ||
| 2026-02-03T12:47 | 25668 | 22 | -53.6 | |||
| 2026-02-03T12:48 | 25970 | 21 | 20 | 7 | ||
| 2026-02-03T12:48 | 26127 | 20 | 13 | 8 | ||
| 2026-02-03T12:48 | 26323 | 20 | 40 | 7 | ||
| 2026-02-03T12:49 | 26487 | 19 | 60 | 7 | ||
| 2026-02-03T12:50 | 26831 | 18 | 84 | 9 | ||
| 2026-02-03T12:51 | 27121 | 17 | -52.6 | 73 | 12 | |
| 2026-02-03T12:51 | 27313 | 17 | 89 | 10 | ||
| 2026-02-03T12:52 | 27664 | 16 | 90 | 10 | ||
| 2026-02-03T12:52 | 27745 | 16 | -51.8 | |||
| 2026-02-03T12:53 | 27998 | 15 | 101 | 8 | ||
| 2026-02-03T12:53 | 28091 | 15 | -49.6 | 111 | 12 | |
| 2026-02-03T12:53 | 28264 | 15 | 89 | 7 | ||
| 2026-02-03T12:54 | 28448 | 14 | 106 | 13 | ||
| 2026-02-03T12:54 | 28634 | 14 | 114 | 11 | ||
| 2026-02-03T12:55 | 28778 | 14 | -48.2 | |||
| 2026-02-03T12:55 | 28926 | 13 | 114 | 13 | ||
| 2026-02-03T12:56 | 29232 | 13 | 106 | 15 | ||
| 2026-02-03T12:56 | 29337 | 12 | 97 | 13 | ||
| 2026-02-03T12:57 | 29665 | 12 | 114 | 13 | ||
| 2026-02-03T12:57 | 29898 | 11 | 133 | 9 | ||
| 2026-02-03T12:58 | 30131 | 11 | 100 | 11 | ||
| 2026-02-03T12:58 | 30192 | 11 | -46.9 | |||
| 2026-02-03T12:59 | 30437 | 11 | 95 | 18 | ||
| 2026-02-03T12:59 | 30632 | 10 | -46.0 | |||
| 2026-02-03T13:00 | 30766 | 10 | 111 | 19 | ||
| 2026-02-03T13:00 | 30967 | 10 | 119 | 14 | ||
| 2026-02-03T13:01 | 31392 | 9 | 114 | 16 | ||
| 2026-02-03T13:02 | 31774 | 9 | -42.4 | 103 | 16 | |
| 2026-02-03T13:02 | 31955 | 8 | -41.9 | 103 | 19 | |
| 2026-02-03T23:44 | 26 | 1019 | 1.6 | -5.3 | 290 | 2 |
| 2026-02-03T23:44 | 28 | 1019 | 1.6 | -6.0 | 0 | 0 |
| 2026-02-03T23:44 | 39 | 1018 | 0.6 | -6.7 | ||
| 2026-02-03T23:44 | 50 | 1016 | 317 | 3 | ||
| 2026-02-03T23:45 | 163 | 1002 | 313 | 3 | ||
| 2026-02-03T23:45 | 173 | 1001 | -0.3 | -7.3 | ||
| 2026-02-03T23:45 | 214 | 996 | 2.5 | -7.7 | ||
| 2026-02-03T23:45 | 250 | 991 | 318 | 4 | ||
| 2026-02-03T23:45 | 369 | 977 | 268 | 2 | ||
| 2026-02-03T23:45 | 395 | 974 | 3.1 | -9.5 | ||
| 2026-02-03T23:45 | 438 | 969 | 265 | 2 | ||
| 2026-02-03T23:46 | 508 | 960 | 2.6 | -6.0 | ||
| 2026-02-03T23:46 | 540 | 956 | 214 | 4 | ||
| 2026-02-03T23:46 | 611 | 948 | 2.2 | -5.4 | ||
| 2026-02-03T23:46 | 775 | 929 | 241 | 6 | ||
| 2026-02-03T23:47 | 1043 | 898 | 248 | 6 | ||
| 2026-02-03T23:48 | 1141 | 888 | -2.5 | -5.5 | ||
| 2026-02-03T23:48 | 1279 | 872 | -1.7 | -10.5 | ||
| 2026-02-03T23:48 | 1290 | 871 | 262 | 5 | ||
| 2026-02-03T23:48 | 1405 | 859 | 0.0 | -18.7 | ||
| 2026-02-03T23:48 | 1410 | 858 | 273 | 2 | ||
| 2026-02-03T23:48 | 1432 | 856 | 0.5 | -20.5 | ||
| 2026-02-03T23:49 | 1538 | 844 | 294 | 7 | ||
| 2026-02-03T23:50 | 1820 | 815 | -2.0 | -22.0 | ||
| 2026-02-03T23:50 | 1826 | 814 | 268 | 9 | ||
| 2026-02-03T23:51 | 2150 | 782 | 277 | 10 | ||
| 2026-02-03T23:51 | 2293 | 768 | -5.1 | -24.1 | ||
| 2026-02-03T23:51 | 2346 | 762 | 282 | 8 | ||
| 2026-02-03T23:51 | 2389 | 758 | -5.3 | -25.4 | ||
| 2026-02-03T23:52 | 2674 | 731 | 283 | 11 | ||
| 2026-02-03T23:53 | 2864 | 713 | -9.5 | -25.9 | ||
| 2026-02-03T23:53 | 2944 | 706 | 288 | 13 | ||
| 2026-02-03T23:53 | 3040 | 697 | -10.1 | -27.3 | ||
| 2026-02-03T23:54 | 3123 | 690 | 286 | 13 | ||
| 2026-02-03T23:54 | 3254 | 678 | -11.2 | -29.8 | ||
| 2026-02-03T23:54 | 3347 | 670 | 286 | 17 | ||
| 2026-02-03T23:55 | 3497 | 657 | -12.8 | -34.1 | ||
| 2026-02-03T23:55 | 3666 | 642 | 288 | 17 | ||
| 2026-02-03T23:56 | 3990 | 615 | 285 | 19 | ||
| 2026-02-03T23:56 | 4006 | 614 | -16.6 | -42.2 | ||
| 2026-02-03T23:57 | 4173 | 601 | -17.1 | -46.3 | ||
| 2026-02-03T23:57 | 4210 | 598 | -16.8 | -52.1 | ||
| 2026-02-03T23:57 | 4312 | 590 | 284 | 23 | ||
| 2026-02-03T23:58 | 4548 | 571 | -17.9 | -56.3 | ||
| 2026-02-03T23:58 | 4595 | 568 | 287 | 28 | ||
| 2026-02-03T23:59 | 4703 | 560 | 289 | 29 | ||
| 2026-02-03T23:59 | 4842 | 549 | -20.1 | -41.5 | ||
| 2026-02-04T00:00 | 5042 | 535 | 289 | 28 | ||
| 2026-02-04T00:00 | 5215 | 522 | 287 | 31 | ||
| 2026-02-04T00:01 | 5575 | 497 | 285 | 30 | ||
| 2026-02-04T00:02 | 5918 | 473 | 289 | 26 | ||
| 2026-02-04T00:02 | 5995 | 468 | -31.2 | -45.2 | ||
| 2026-02-04T00:03 | 6062 | 464 | -31.3 | -47.4 | ||
| 2026-02-04T00:03 | 6245 | 452 | -31.0 | -55.7 | 284 | 32 |
| 2026-02-04T00:04 | 6555 | 433 | 285 | 31 | ||
| 2026-02-04T00:05 | 6719 | 423 | 288 | 34 | ||
| 2026-02-04T00:06 | 7046 | 403 | 289 | 33 | ||
| 2026-02-04T00:06 | 7100 | 400 | -37.4 | -58.7 | ||
| 2026-02-04T00:06 | 7273 | 390 | 285 | 37 | ||
| 2026-02-04T00:06 | 7309 | 388 | -38.9 | -60.8 | ||
| 2026-02-04T00:07 | 7507 | 377 | -39.3 | -62.2 | ||
| 2026-02-04T00:07 | 7524 | 376 | 285 | 45 | ||
| 2026-02-04T00:07 | 7614 | 371 | -40.0 | -61.7 | ||
| 2026-02-04T00:08 | 7876 | 357 | 282 | 47 | ||
| 2026-02-04T00:09 | 8065 | 347 | -43.6 | |||
| 2026-02-04T00:09 | 8088 | 346 | 277 | 45 | ||
| 2026-02-04T00:09 | 8243 | 338 | -44.5 | |||
| 2026-02-04T00:09 | 8376 | 331 | 281 | 45 | ||
| 2026-02-04T00:10 | 8740 | 314 | 274 | 46 | ||
| 2026-02-04T00:11 | 8832 | 309 | -49.6 | |||
| 2026-02-04T00:11 | 9097 | 297 | 276 | 45 | ||
| 2026-02-04T00:12 | 9419 | 283 | 276 | 48 | ||
| 2026-02-04T00:13 | 9754 | 268 | 274 | 48 | ||
| 2026-02-04T00:14 | 9860 | 264 | -57.2 | |||
| 2026-02-04T00:14 | 9935 | 260 | 270 | 49 | ||
| 2026-02-04T00:14 | 9987 | 258 | -56.4 | |||
| 2026-02-04T00:14 | 10122 | 253 | -55.8 | |||
| 2026-02-04T00:15 | 10297 | 246 | 274 | 49 | ||
| 2026-02-04T00:15 | 10494 | 239 | -55.8 | |||
| 2026-02-04T00:16 | 10652 | 233 | 280 | 47 | ||
| 2026-02-04T00:16 | 10837 | 226 | 276 | 48 | ||
| 2026-02-04T00:17 | 10961 | 222 | -53.8 | |||
| 2026-02-04T00:17 | 11087 | 217 | -53.3 | |||
| 2026-02-04T00:17 | 11099 | 217 | 271 | 49 | ||
| 2026-02-04T00:18 | 11420 | 207 | -52.3 | |||
| 2026-02-04T00:18 | 11449 | 206 | 274 | 53 | ||
| 2026-02-04T00:19 | 11664 | 199 | -51.9 | |||
| 2026-02-04T00:19 | 11765 | 196 | 276 | 49 | ||
| 2026-02-04T00:20 | 11940 | 191 | 274 | 46 | ||
| 2026-02-04T00:20 | 11971 | 190 | -51.1 | |||
| 2026-02-04T00:20 | 12192 | 183 | 272 | 50 | ||
| 2026-02-04T00:21 | 12321 | 180 | -51.1 | |||
| 2026-02-04T00:21 | 12543 | 174 | -50.3 | |||
| 2026-02-04T00:21 | 12574 | 173 | 273 | 50 | ||
| 2026-02-04T00:22 | 12962 | 163 | 274 | 49 | ||
| 2026-02-04T00:22 | 12975 | 162 | -52.0 | |||
| 2026-02-04T00:23 | 13240 | 156 | -53.6 | |||
| 2026-02-04T00:23 | 13273 | 155 | 274 | 46 | ||
| 2026-02-04T00:23 | 13378 | 153 | -53.4 | |||
| 2026-02-04T00:24 | 13635 | 147 | 275 | 41 | ||
| 2026-02-04T00:24 | 13753 | 144 | -54.0 | |||
| 2026-02-04T00:25 | 13965 | 139 | -53.8 | |||
| 2026-02-04T00:25 | 13980 | 139 | 273 | 42 | ||
| 2026-02-04T00:26 | 14288 | 132 | 272 | 41 | ||
| 2026-02-04T00:26 | 14353 | 131 | -56.7 | |||
| 2026-02-04T00:27 | 14646 | 125 | 279 | 41 | ||
| 2026-02-04T00:28 | 14923 | 120 | -59.7 | |||
| 2026-02-04T00:28 | 14947 | 119 | 279 | 38 | ||
| 2026-02-04T00:29 | 15229 | 114 | -59.7 | |||
| 2026-02-04T00:29 | 15302 | 113 | 275 | 38 | ||
| 2026-02-04T00:30 | 15614 | 107 | 272 | 38 | ||
| 2026-02-04T00:31 | 15826 | 104 | -60.3 | |||
| 2026-02-04T00:31 | 15900 | 102 | 283 | 41 | ||
| 2026-02-04T00:32 | 16179 | 98 | 281 | 33 | ||
| 2026-02-04T00:32 | 16218 | 97 | -58.9 | |||
| 2026-02-04T00:33 | 16454 | 94 | 272 | 31 | ||
| 2026-02-04T00:33 | 16659 | 91 | 268 | 34 | ||
| 2026-02-04T00:34 | 16883 | 88 | -60.6 | |||
| 2026-02-04T00:34 | 16992 | 86 | 271 | 34 | ||
| 2026-02-04T00:35 | 17253 | 82 | -62.6 | |||
| 2026-02-04T00:35 | 17284 | 82 | 281 | 38 | ||
| 2026-02-04T00:36 | 17477 | 80 | 280 | 34 | ||
| 2026-02-04T00:36 | 17586 | 78 | -62.8 | |||
| 2026-02-04T00:37 | 17761 | 76 | -62.7 | |||
| 2026-02-04T00:37 | 17800 | 75 | 277 | 30 | ||
| 2026-02-04T00:37 | 17966 | 73 | -62.5 | |||
| 2026-02-04T00:38 | 18113 | 72 | 288 | 31 | ||
| 2026-02-04T00:38 | 18130 | 72 | -62.0 | |||
| 2026-02-04T00:38 | 18263 | 70 | -61.3 | |||
| 2026-02-04T00:39 | 18424 | 68 | 296 | 28 | ||
| 2026-02-04T00:40 | 18747 | 65 | 289 | 21 | ||
| 2026-02-04T00:40 | 18873 | 63 | -61.8 | |||
| 2026-02-04T00:41 | 18991 | 62 | -61.9 | |||
| 2026-02-04T00:41 | 19062 | 62 | 281 | 23 | ||
| 2026-02-04T00:41 | 19082 | 61 | -60.8 | |||
| 2026-02-04T00:42 | 19250 | 60 | -60.3 | |||
| 2026-02-04T00:42 | 19330 | 59 | -58.5 | |||
| 2026-02-04T00:42 | 19365 | 59 | 269 | 20 | ||
| 2026-02-04T00:42 | 19525 | 57 | 262 | 15 | ||
| 2026-02-04T00:42 | 19535 | 57 | -58.9 | |||
| 2026-02-04T00:43 | 19774 | 55 | -58.4 | |||
| 2026-02-04T00:43 | 19845 | 54 | 248 | 15 | ||
| 2026-02-04T00:44 | 19985 | 53 | -58.6 | |||
| 2026-02-04T00:44 | 20140 | 52 | -56.5 | |||
| 2026-02-04T00:44 | 20177 | 52 | 277 | 17 | ||
| 2026-02-04T00:44 | 20188 | 51 | -56.6 | 279 | 17 | |
| 2026-02-04T12:30 | 26 | 1015 | 3.5 | -2.7 | 0 | 0 |
| 2026-02-04T12:30 | 32 | 1014 | 4.0 | -3.3 | 0 | 0 |
| 2026-02-04T12:30 | 80 | 1008 | 7.4 | -5.3 | ||
| 2026-02-04T12:30 | 102 | 1005 | 8.1 | -5.7 | ||
| 2026-02-04T12:30 | 113 | 1004 | 27 | 3 | ||
| 2026-02-04T12:30 | 194 | 994 | 21 | 2 | ||
| 2026-02-04T12:31 | 337 | 977 | 6.8 | -7.2 | ||
| 2026-02-04T12:31 | 528 | 954 | 13 | 1 | ||
| 2026-02-04T12:32 | 631 | 942 | 53 | 3 | ||
| 2026-02-04T12:32 | 732 | 931 | 0 | 0 | ||
| 2026-02-04T12:32 | 744 | 929 | 3.7 | -5.8 | ||
| 2026-02-04T12:32 | 816 | 921 | 3.2 | -4.5 | ||
| 2026-02-04T12:32 | 875 | 914 | 3.2 | -7.6 | ||
| 2026-02-04T12:33 | 945 | 906 | 68 | 3 | ||
| 2026-02-04T12:33 | 1067 | 893 | 62 | 2 | ||
| 2026-02-04T12:33 | 1118 | 887 | 1.5 | -12.3 | ||
| 2026-02-04T12:34 | 1250 | 873 | 1.2 | -13.3 | ||
| 2026-02-04T12:34 | 1279 | 870 | 78 | 4 | ||
| 2026-02-04T12:34 | 1353 | 862 | 80 | 3 | ||
| 2026-02-04T12:34 | 1432 | 854 | 347 | 3 | ||
| 2026-02-04T12:35 | 1591 | 837 | 0.5 | -15.5 | ||
| 2026-02-04T12:35 | 1666 | 829 | 277 | 5 | ||
| 2026-02-04T12:35 | 1672 | 828 | 0.5 | -17.8 | ||
| 2026-02-04T12:36 | 1924 | 803 | 215 | 5 | ||
| 2026-02-04T12:36 | 1999 | 795 | -1.8 | -23.7 | ||
| 2026-02-04T12:36 | 2096 | 786 | 237 | 7 | ||
| 2026-02-04T12:37 | 2293 | 766 | -4.0 | -18.7 | ||
| 2026-02-04T12:37 | 2316 | 764 | 228 | 6 | ||
| 2026-02-04T12:37 | 2449 | 751 | -4.8 | -20.5 | ||
| 2026-02-04T12:38 | 2662 | 731 | 247 | 7 | ||
| 2026-02-04T12:39 | 3041 | 696 | -8.9 | -32.4 | 265 | 13 |
| 2026-02-04T12:39 | 3211 | 681 | -9.6 | -34.7 | ||
| 2026-02-04T12:39 | 3245 | 678 | 277 | 15 | ||
| 2026-02-04T12:40 | 3509 | 655 | -9.9 | -44.6 | ||
| 2026-02-04T12:40 | 3579 | 649 | 263 | 14 | ||
| 2026-02-04T12:40 | 3600 | 648 | -10.4 | -38.5 | ||
| 2026-02-04T12:40 | 3648 | 644 | -10.6 | -19.5 | ||
| 2026-02-04T12:41 | 3702 | 639 | -11.0 | -18.1 | ||
| 2026-02-04T12:41 | 3734 | 636 | -11.2 | -18.5 | ||
| 2026-02-04T12:41 | 3778 | 633 | -11.4 | -26.7 | ||
| 2026-02-04T12:41 | 3841 | 628 | -11.9 | -18.1 | ||
| 2026-02-04T12:41 | 3909 | 622 | 265 | 16 | ||
| 2026-02-04T12:42 | 4200 | 599 | -15.1 | -19.7 | ||
| 2026-02-04T12:42 | 4232 | 596 | 269 | 18 | ||
| 2026-02-04T12:43 | 4329 | 589 | -16.1 | -22.9 | ||
| 2026-02-04T12:43 | 4431 | 581 | -16.9 | -28.2 | ||
| 2026-02-04T12:43 | 4534 | 573 | -17.6 | -32.1 | ||
| 2026-02-04T12:43 | 4562 | 571 | 263 | 18 | ||
| 2026-02-04T12:44 | 4770 | 555 | -19.8 | -26.7 | ||
| 2026-02-04T12:44 | 4920 | 544 | 264 | 17 | ||
| 2026-02-04T12:45 | 5024 | 536 | -21.9 | -26.9 | ||
| 2026-02-04T12:45 | 5060 | 533 | -20.8 | -24.5 | ||
| 2026-02-04T12:45 | 5220 | 522 | 246 | 22 | ||
| 2026-02-04T12:45 | 5350 | 513 | -22.7 | -25.9 | ||
| 2026-02-04T12:46 | 5598 | 496 | 266 | 21 | ||
| 2026-02-04T12:47 | 5810 | 481 | 261 | 22 | ||
| 2026-02-04T12:47 | 6122 | 461 | -28.7 | -31.6 | ||
| 2026-02-04T12:48 | 6184 | 457 | 270 | 23 | ||
| 2026-02-04T12:49 | 6545 | 434 | 275 | 25 | ||
| 2026-02-04T12:49 | 6800 | 419 | 274 | 23 | ||
| 2026-02-04T12:50 | 6904 | 413 | -35.4 | -37.9 | ||
| 2026-02-04T12:50 | 7160 | 398 | 272 | 25 | ||
| 2026-02-04T12:50 | 7183 | 396 | -37.3 | -40.0 | ||
| 2026-02-04T12:51 | 7511 | 378 | 270 | 29 | ||
| 2026-02-04T12:51 | 7548 | 376 | -40.0 | -43.1 | ||
| 2026-02-04T12:52 | 7876 | 358 | 272 | 32 | ||
| 2026-02-04T12:53 | 8241 | 339 | 271 | 33 | ||
| 2026-02-04T12:54 | 8402 | 331 | 269 | 35 | ||
| 2026-02-04T12:54 | 8414 | 331 | -48.0 | |||
| 2026-02-04T12:55 | 8755 | 314 | 270 | 36 | ||
| 2026-02-04T12:56 | 9113 | 297 | 269 | 35 | ||
| 2026-02-04T12:56 | 9303 | 288 | 267 | 33 | ||
| 2026-02-04T12:57 | 9421 | 283 | 264 | 35 | ||
| 2026-02-04T12:57 | 9575 | 276 | -58.0 | |||
| 2026-02-04T12:57 | 9613 | 274 | 266 | 36 | ||
| 2026-02-04T12:57 | 9725 | 269 | 270 | 40 | ||
| 2026-02-04T12:58 | 9744 | 269 | -56.1 | |||
| 2026-02-04T12:58 | 9881 | 263 | -54.5 | |||
| 2026-02-04T12:58 | 10110 | 254 | 280 | 40 | ||
| 2026-02-04T12:59 | 10176 | 251 | -54.3 | |||
| 2026-02-04T12:59 | 10325 | 245 | -52.8 | |||
| 2026-02-04T12:59 | 10453 | 241 | -52.7 | 283 | 42 | |
| 2026-02-04T13:00 | 10615 | 235 | 276 | 42 | ||
| 2026-02-04T13:00 | 10726 | 231 | -50.8 | |||
| 2026-02-04T13:01 | 10867 | 226 | 275 | 45 | ||
| 2026-02-04T13:01 | 10941 | 223 | -49.7 | |||
| 2026-02-04T13:01 | 11110 | 217 | -50.5 | |||
| 2026-02-04T13:02 | 11242 | 213 | 283 | 46 | ||
| 2026-02-04T13:02 | 11469 | 206 | -48.8 | |||
| 2026-02-04T13:03 | 11556 | 203 | 278 | 41 | ||
| 2026-02-04T13:04 | 11814 | 195 | -48.4 | |||
| 2026-02-04T13:04 | 11836 | 195 | 276 | 38 | ||
| 2026-02-04T13:04 | 11938 | 192 | 275 | 41 | ||
| 2026-02-04T13:04 | 12011 | 190 | 272 | 44 | ||
| 2026-02-04T13:04 | 12108 | 187 | 268 | 41 | ||
| 2026-02-04T13:05 | 12142 | 186 | -50.4 | |||
| 2026-02-04T13:05 | 12439 | 178 | 270 | 46 | ||
| 2026-02-04T13:06 | 12508 | 176 | -51.3 | |||
| 2026-02-04T13:06 | 12768 | 169 | 269 | 46 | ||
| 2026-02-04T13:07 | 13029 | 162 | -50.9 | |||
| 2026-02-04T13:07 | 13095 | 160 | 271 | 46 | ||
| 2026-02-04T13:08 | 13388 | 153 | 275 | 49 | ||
| 2026-02-04T13:09 | 13556 | 149 | -51.7 | |||
| 2026-02-04T13:09 | 13683 | 147 | 277 | 46 | ||
| 2026-02-04T13:10 | 13960 | 140 | 275 | 47 | ||
| 2026-02-04T13:11 | 14009 | 139 | -54.2 | |||
| 2026-02-04T13:11 | 14227 | 135 | 276 | 46 | ||
| 2026-02-04T13:11 | 14231 | 135 | -55.1 | |||
| 2026-02-04T13:12 | 14439 | 130 | -55.3 | |||
| 2026-02-04T13:12 | 14494 | 129 | 278 | 47 | ||
| 2026-02-04T13:13 | 14681 | 125 | 282 | 46 | ||
| 2026-02-04T13:14 | 14949 | 120 | 287 | 42 | ||
| 2026-02-04T13:14 | 15079 | 118 | -55.6 | |||
| 2026-02-04T13:15 | 15266 | 114 | 293 | 38 | ||
| 2026-02-04T13:16 | 15448 | 111 | -57.4 | |||
| 2026-02-04T13:16 | 15561 | 109 | 282 | 33 | ||
| 2026-02-04T13:16 | 15699 | 107 | -57.4 | |||
| 2026-02-04T13:17 | 15840 | 104 | 278 | 33 | ||
| 2026-02-04T13:17 | 15968 | 102 | 277 | 32 | ||
| 2026-02-04T13:18 | 16270 | 98 | 278 | 32 | ||
| 2026-02-04T13:19 | 16481 | 94 | 275 | 27 | ||
| 2026-02-04T13:20 | 16719 | 91 | -59.6 | |||
| 2026-02-04T13:20 | 16783 | 90 | 281 | 30 | ||
| 2026-02-04T13:21 | 17075 | 86 | 279 | 28 | ||
| 2026-02-04T13:22 | 17228 | 84 | 275 | 30 | ||
| 2026-02-04T13:22 | 17439 | 81 | 280 | 35 | ||
| 2026-02-04T13:23 | 17683 | 78 | -60.6 | |||
| 2026-02-04T13:23 | 17723 | 77 | 272 | 27 | ||
| 2026-02-04T13:24 | 18000 | 74 | -60.7 | 280 | 29 | |
| 2026-02-04T13:25 | 18216 | 71 | 269 | 25 | ||
| 2026-02-04T13:26 | 18499 | 68 | -61.1 | |||
| 2026-02-04T13:26 | 18506 | 68 | 275 | 27 | ||
| 2026-02-04T13:27 | 18791 | 65 | 278 | 19 | ||
| 2026-02-04T13:27 | 18868 | 64 | -62.3 | |||
| 2026-02-04T13:28 | 19090 | 62 | 269 | 20 | ||
| 2026-02-04T13:29 | 19288 | 60 | -64.9 | |||
| 2026-02-04T13:29 | 19410 | 59 | 280 | 24 | ||
| 2026-02-04T13:29 | 19539 | 58 | -63.7 | |||
| 2026-02-04T13:30 | 19734 | 56 | 302 | 15 | ||
| 2026-02-04T13:30 | 19747 | 56 | -62.4 | |||
| 2026-02-04T13:31 | 19971 | 54 | 292 | 11 | ||
| 2026-02-04T13:31 | 20007 | 53 | -61.1 | |||
| 2026-02-04T13:31 | 20100 | 53 | -60.2 | |||
| 2026-02-04T13:32 | 20282 | 51 | 279 | 20 | ||
| 2026-02-04T13:32 | 20455 | 50 | -60.7 | |||
| 2026-02-04T13:33 | 20617 | 48 | 294 | 24 | ||
| 2026-02-04T13:34 | 20936 | 46 | 307 | 11 | ||
| 2026-02-04T13:34 | 21061 | 45 | 294 | 6 | ||
| 2026-02-04T13:35 | 21258 | 44 | 265 | 8 | ||
| 2026-02-04T13:35 | 21344 | 43 | -58.8 | |||
| 2026-02-04T13:35 | 21491 | 42 | 275 | 12 | ||
| 2026-02-04T13:36 | 21598 | 41 | -56.7 | |||
| 2026-02-04T13:36 | 21643 | 41 | 301 | 6 | ||
| 2026-02-04T13:36 | 21753 | 40 | 4 | 5 | ||
| 2026-02-04T13:36 | 21848 | 40 | 28 | 3 | ||
| 2026-02-04T13:37 | 21928 | 39 | 72 | 4 | ||
| 2026-02-04T13:37 | 22008 | 39 | 107 | 2 | ||
| 2026-02-04T13:38 | 22259 | 37 | 244 | 4 | ||
| 2026-02-04T13:38 | 22380 | 37 | -55.4 | |||
| 2026-02-04T13:38 | 22431 | 36 | 284 | 7 | ||
| 2026-02-04T13:39 | 22593 | 35 | 267 | 7 | ||
| 2026-02-04T13:39 | 22719 | 35 | 294 | 5 | ||
| 2026-02-04T13:39 | 22870 | 34 | -55.0 | |||
| 2026-02-04T13:40 | 23062 | 33 | 298 | 5 | ||
| 2026-02-04T13:41 | 23302 | 32 | 294 | 7 | ||
| 2026-02-04T13:41 | 23525 | 31 | 357 | 7 | ||
| 2026-02-04T13:42 | 23693 | 30 | 359 | 5 | ||
| 2026-02-04T13:42 | 23781 | 29 | 356 | 5 | ||
| 2026-02-04T13:42 | 23825 | 29 | -54.8 | |||
| 2026-02-04T13:43 | 23935 | 29 | 41 | 4 | ||
| 2026-02-04T13:43 | 24185 | 28 | 52 | 2 | ||
| 2026-02-04T13:44 | 24395 | 27 | 104 | 5 | ||
| 2026-02-04T13:44 | 24491 | 26 | -57.4 | |||
| 2026-02-04T13:45 | 24634 | 26 | 82 | 2 | ||
| 2026-02-04T13:45 | 24884 | 25 | 103 | 7 | ||
| 2026-02-04T13:46 | 25068 | 24 | 148 | 9 | ||
| 2026-02-04T13:47 | 25417 | 23 | 172 | 5 | ||
| 2026-02-04T13:48 | 25645 | 22 | -57.0 | |||
| 2026-02-04T13:48 | 25794 | 21 | 173 | 6 | ||
| 2026-02-04T13:49 | 26098 | 20 | 210 | 8 | ||
| 2026-02-04T13:49 | 26255 | 20 | 177 | 8 | ||
| 2026-02-04T13:50 | 26352 | 20 | 197 | 5 | ||
| 2026-02-04T13:50 | 26450 | 19 | 240 | 6 | ||
| 2026-02-04T13:50 | 26552 | 19 | -54.4 | |||
| 2026-02-04T13:51 | 26722 | 19 | 278 | 4 | ||
| 2026-02-04T13:51 | 26863 | 18 | 352 | 4 | ||
| 2026-02-04T13:51 | 26897 | 18 | 14 | 4 | ||
| 2026-02-04T13:51 | 27008 | 18 | 56 | 5 | ||
| 2026-02-04T13:52 | 27156 | 17 | 80 | 4 | ||
| 2026-02-04T13:52 | 27267 | 17 | 105 | 5 | ||
| 2026-02-04T13:53 | 27421 | 17 | 87 | 7 | ||
| 2026-02-04T13:53 | 27619 | 16 | 89 | 6 | ||
| 2026-02-04T13:53 | 27745 | 16 | 56 | 6 | ||
| 2026-02-04T13:54 | 27910 | 15 | 73 | 6 | ||
| 2026-02-04T13:55 | 28170 | 15 | 65 | 9 | ||
| 2026-02-04T13:55 | 28351 | 14 | -49.5 | 60 | 9 | |
| 2026-02-04T13:56 | 28724 | 14 | 93 | 12 | ||
| 2026-02-04T13:57 | 28971 | 13 | 98 | 15 | ||
| 2026-02-04T13:58 | 29228 | 13 | 108 | 14 | ||
| 2026-02-04T13:58 | 29495 | 12 | 94 | 16 | ||
| 2026-02-04T13:59 | 29553 | 12 | -46.5 | 98 | 16 | |
| 2026-02-04T23:33 | 26 | 1015 | 4.5 | -2.1 | 290 | 2 |
| 2026-02-04T23:33 | 32 | 1014 | 4.3 | -3.2 | 0 | 0 |
| 2026-02-04T23:33 | 63 | 1010 | 3.4 | -4.5 | ||
| 2026-02-04T23:33 | 89 | 1007 | 3.9 | -5.8 | ||
| 2026-02-04T23:33 | 100 | 1006 | 297 | 3 | ||
| 2026-02-04T23:33 | 127 | 1002 | 7.1 | -7.0 | ||
| 2026-02-04T23:34 | 210 | 992 | 320 | 8 | ||
| 2026-02-04T23:34 | 231 | 990 | 7.1 | -6.6 | ||
| 2026-02-04T23:34 | 325 | 978 | 7.2 | -6.9 | ||
| 2026-02-04T23:34 | 388 | 971 | 293 | 2 | ||
| 2026-02-04T23:34 | 480 | 960 | 6.2 | -4.9 | ||
| 2026-02-04T23:35 | 621 | 943 | 5.3 | -1.2 | ||
| 2026-02-04T23:35 | 654 | 940 | 125 | 3 | ||
| 2026-02-04T23:35 | 729 | 931 | 4.7 | -3.6 | ||
| 2026-02-04T23:35 | 792 | 924 | 4.0 | -1.6 | ||
| 2026-02-04T23:36 | 834 | 919 | 127 | 5 | ||
| 2026-02-04T23:36 | 1019 | 899 | 2.2 | -3.5 | ||
| 2026-02-04T23:37 | 1153 | 884 | 150 | 6 | ||
| 2026-02-04T23:37 | 1203 | 878 | 0.8 | -6.5 | ||
| 2026-02-04T23:37 | 1247 | 873 | 0.5 | -8.7 | ||
| 2026-02-04T23:37 | 1291 | 869 | 0.4 | -12.3 | ||
| 2026-02-04T23:37 | 1468 | 850 | 179 | 2 | ||
| 2026-02-04T23:38 | 1517 | 844 | -1.2 | -12.8 | ||
| 2026-02-04T23:38 | 1639 | 831 | 207 | 4 | ||
| 2026-02-04T23:38 | 1679 | 827 | -1.5 | -16.1 | ||
| 2026-02-04T23:38 | 1724 | 823 | 213 | 5 | ||
| 2026-02-04T23:39 | 1892 | 805 | 202 | 5 | ||
| 2026-02-04T23:39 | 1920 | 803 | -3.4 | -15.7 | ||
| 2026-02-04T23:39 | 2074 | 787 | -3.6 | -19.5 | ||
| 2026-02-04T23:40 | 2238 | 771 | 247 | 11 | ||
| 2026-02-04T23:40 | 2262 | 769 | -3.3 | -26.3 | ||
| 2026-02-04T23:41 | 2581 | 738 | 262 | 11 | ||
| 2026-02-04T23:41 | 2739 | 723 | -7.1 | -35.9 | ||
| 2026-02-04T23:42 | 2925 | 706 | 272 | 15 | ||
| 2026-02-04T23:43 | 3203 | 681 | -10.5 | -39.8 | ||
| 2026-02-04T23:43 | 3279 | 674 | 270 | 16 | ||
| 2026-02-04T23:43 | 3447 | 660 | -12.3 | -39.9 | ||
| 2026-02-04T23:44 | 3558 | 650 | -12.6 | -28.6 | ||
| 2026-02-04T23:44 | 3612 | 646 | 267 | 19 | ||
| 2026-02-04T23:44 | 3628 | 644 | -13.0 | -21.5 | ||
| 2026-02-04T23:45 | 3950 | 617 | 270 | 18 | ||
| 2026-02-04T23:45 | 4083 | 607 | -17.3 | -23.2 | ||
| 2026-02-04T23:45 | 4119 | 604 | -17.5 | -25.7 | ||
| 2026-02-04T23:45 | 4172 | 600 | -15.8 | -38.8 | ||
| 2026-02-04T23:46 | 4280 | 591 | -16.2 | -44.2 | ||
| 2026-02-04T23:46 | 4310 | 589 | 266 | 19 | ||
| 2026-02-04T23:46 | 4537 | 571 | 265 | 20 | ||
| 2026-02-04T23:46 | 4543 | 571 | -18.2 | -48.7 | ||
| 2026-02-04T23:47 | 4673 | 561 | -18.3 | -56.6 | ||
| 2026-02-04T23:47 | 4719 | 557 | 269 | 22 | ||
| 2026-02-04T23:48 | 5059 | 532 | 272 | 27 | ||
| 2026-02-04T23:49 | 5360 | 511 | -22.8 | -52.2 | ||
| 2026-02-04T23:49 | 5394 | 509 | 276 | 31 | ||
| 2026-02-04T23:50 | 5745 | 485 | 277 | 29 | ||
| 2026-02-04T23:50 | 5835 | 479 | -27.0 | -46.5 | ||
| 2026-02-04T23:51 | 6010 | 467 | 277 | 33 | ||
| 2026-02-04T23:51 | 6155 | 458 | -27.8 | -60.0 | ||
| 2026-02-04T23:51 | 6279 | 450 | 278 | 42 | ||
| 2026-02-04T23:52 | 6417 | 441 | -29.5 | -55.8 | ||
| 2026-02-04T23:52 | 6459 | 439 | 279 | 43 | ||
| 2026-02-04T23:53 | 6749 | 421 | -32.3 | -46.9 | ||
| 2026-02-04T23:53 | 6811 | 417 | 280 | 49 | ||
| 2026-02-04T23:53 | 6836 | 416 | -32.8 | -41.6 | ||
| 2026-02-04T23:53 | 6910 | 412 | 278 | 51 | ||
| 2026-02-04T23:53 | 6916 | 411 | -32.7 | -59.7 | ||
| 2026-02-04T23:54 | 7131 | 399 | 282 | 48 | ||
| 2026-02-04T23:55 | 7437 | 382 | -36.9 | -60.3 | ||
| 2026-02-04T23:55 | 7504 | 378 | 280 | 52 | ||
| 2026-02-04T23:55 | 7725 | 366 | 279 | 49 | ||
| 2026-02-04T23:56 | 7870 | 358 | -39.5 | -64.9 | ||
| 2026-02-04T23:56 | 7981 | 353 | -40.0 | -66.9 | ||
| 2026-02-04T23:56 | 8040 | 350 | 281 | 53 | ||
| 2026-02-04T23:57 | 8320 | 335 | 285 | 58 | ||
| 2026-02-04T23:57 | 8424 | 330 | 282 | 61 | ||
| 2026-02-04T23:57 | 8491 | 327 | -42.5 | |||
| 2026-02-04T23:58 | 8777 | 313 | 280 | 62 | ||
| 2026-02-04T23:59 | 9118 | 298 | 280 | 62 | ||
| 2026-02-05T00:00 | 9462 | 282 | 282 | 63 | ||
| 2026-02-05T00:01 | 9806 | 268 | 282 | 61 | ||
| 2026-02-05T00:01 | 9906 | 264 | -55.3 | |||
| 2026-02-05T00:02 | 10030 | 258 | 285 | 61 | ||
| 2026-02-05T00:02 | 10265 | 249 | -57.4 | |||
| 2026-02-05T00:03 | 10277 | 249 | 284 | 59 | ||
| 2026-02-05T00:03 | 10585 | 237 | -53.3 | |||
| 2026-02-05T00:03 | 10590 | 237 | 286 | 59 | ||
| 2026-02-05T00:04 | 10788 | 230 | 284 | 54 | ||
| 2026-02-05T00:04 | 10834 | 228 | -54.0 | |||
| 2026-02-05T00:04 | 10932 | 224 | 284 | 58 | ||
| 2026-02-05T00:05 | 11117 | 218 | 279 | 53 | ||
| 2026-02-05T00:05 | 11138 | 217 | -52.0 | |||
| 2026-02-05T00:06 | 11528 | 205 | 280 | 53 | ||
| 2026-02-05T00:06 | 11554 | 204 | -50.9 | |||
| 2026-02-05T00:07 | 11819 | 196 | -51.1 | |||
| 2026-02-05T00:07 | 11867 | 194 | 282 | 54 | ||
| 2026-02-05T00:07 | 12011 | 190 | -50.0 | |||
| 2026-02-05T00:08 | 12160 | 186 | 274 | 52 | ||
| 2026-02-05T00:08 | 12447 | 178 | -51.3 | |||
| 2026-02-05T00:09 | 12497 | 176 | 271 | 48 | ||
| 2026-02-05T00:09 | 12583 | 174 | -51.5 | |||
| 2026-02-05T00:10 | 12809 | 168 | 271 | 56 | ||
| 2026-02-05T00:10 | 12904 | 166 | -53.0 | |||
| 2026-02-05T00:10 | 13104 | 161 | 280 | 54 | ||
| 2026-02-05T00:11 | 13289 | 156 | 278 | 53 | ||
| 2026-02-05T00:11 | 13355 | 154 | -53.2 | |||
| 2026-02-05T00:12 | 13474 | 152 | 276 | 47 | ||
| 2026-02-05T00:13 | 13780 | 145 | 267 | 51 | ||
| 2026-02-05T00:13 | 13825 | 144 | -54.0 | |||
| 2026-02-05T00:13 | 14003 | 140 | -53.8 | |||
| 2026-02-05T00:13 | 14020 | 139 | 275 | 55 | ||
| 2026-02-05T00:14 | 14224 | 135 | 277 | 51 | ||
| 2026-02-05T00:14 | 14254 | 134 | -53.0 | |||
| 2026-02-05T00:15 | 14525 | 129 | 280 | 49 | ||
| 2026-02-05T00:15 | 14540 | 128 | -53.5 | |||
| 2026-02-05T00:16 | 14828 | 123 | 285 | 49 | ||
| 2026-02-05T00:16 | 14903 | 121 | -55.6 | |||
| 2026-02-05T00:17 | 15090 | 118 | 289 | 39 | ||
| 2026-02-05T00:17 | 15095 | 118 | -54.0 | |||
| 2026-02-05T00:18 | 15393 | 112 | 278 | 35 | ||
| 2026-02-05T00:19 | 15587 | 109 | -56.0 | |||
| 2026-02-05T00:19 | 15702 | 107 | 272 | 35 | ||
| 2026-02-05T00:20 | 16013 | 102 | 280 | 32 | ||
| 2026-02-05T00:20 | 16087 | 101 | -58.1 | |||
| 2026-02-05T00:21 | 16323 | 97 | 281 | 27 | ||
| 2026-02-05T00:22 | 16666 | 92 | -60.4 | 278 | 26 | |
| 2026-02-05T00:23 | 17015 | 87 | 281 | 26 | ||
| 2026-02-05T00:24 | 17268 | 83 | 286 | 28 | ||
| 2026-02-05T00:25 | 17555 | 80 | -63.4 | |||
| 2026-02-05T00:25 | 17571 | 79 | 287 | 23 | ||
| 2026-02-05T00:25 | 17783 | 77 | 288 | 25 | ||
| 2026-02-05T00:26 | 18019 | 74 | 288 | 19 | ||
| 2026-02-05T00:27 | 18211 | 71 | -65.3 | |||
| 2026-02-05T00:27 | 18270 | 71 | 301 | 21 | ||
| 2026-02-05T00:27 | 18411 | 69 | -64.6 | |||
| 2026-02-05T00:28 | 18597 | 67 | 316 | 19 | ||
| 2026-02-05T00:28 | 18679 | 66 | -64.7 | |||
| 2026-02-05T00:29 | 18867 | 64 | 300 | 13 | ||
| 2026-02-05T00:29 | 18965 | 63 | -62.9 | |||
| 2026-02-05T00:30 | 19194 | 61 | 272 | 15 | ||
| 2026-02-05T00:30 | 19429 | 59 | -65.4 | |||
| 2026-02-05T00:30 | 19483 | 58 | 269 | 23 | ||
| 2026-02-05T00:31 | 19727 | 56 | -64.4 | |||
| 2026-02-05T00:31 | 19815 | 55 | 271 | 17 | ||
| 2026-02-05T00:32 | 20043 | 53 | 284 | 14 | ||
| 2026-02-05T00:33 | 20173 | 52 | -61.3 | |||
| 2026-02-05T00:33 | 20284 | 51 | 272 | 13 | ||
| 2026-02-05T00:33 | 20483 | 49 | -60.7 | 265 | 13 | |
| 2026-02-05T00:34 | 20612 | 48 | 275 | 12 | ||
| 2026-02-05T00:34 | 20662 | 48 | -57.0 | |||
| 2026-02-05T00:35 | 20961 | 46 | 264 | 8 | ||
| 2026-02-05T00:35 | 21169 | 44 | 272 | 6 | ||
| 2026-02-05T00:36 | 21396 | 43 | 269 | 7 | ||
| 2026-02-05T00:36 | 21456 | 42 | -61.8 | |||
| 2026-02-05T00:37 | 21619 | 41 | -60.0 | |||
| 2026-02-05T00:37 | 21758 | 40 | 289 | 7 | ||
| 2026-02-05T00:38 | 21996 | 39 | 300 | 5 | ||
| 2026-02-05T00:38 | 22143 | 38 | -60.1 | |||
| 2026-02-05T00:38 | 22225 | 37 | 257 | 8 | ||
| 2026-02-05T00:39 | 22343 | 37 | -58.0 | |||
| 2026-02-05T00:39 | 22411 | 36 | 235 | 2 | ||
| 2026-02-05T00:40 | 22699 | 35 | -58.0 | |||
| 2026-02-05T00:40 | 22717 | 35 | 54 | 3 | ||
| 2026-02-05T00:40 | 22887 | 34 | -57.2 | |||
| 2026-02-05T00:41 | 23096 | 33 | 158 | 5 | ||
| 2026-02-05T00:42 | 23411 | 31 | -58.4 | |||
| 2026-02-05T00:42 | 23432 | 31 | 213 | 2 | ||
| 2026-02-05T00:42 | 23554 | 30 | 185 | 3 | ||
| 2026-02-05T00:43 | 23745 | 29 | 233 | 3 | ||
| 2026-02-05T00:43 | 23879 | 29 | 222 | 2 | ||
| 2026-02-05T00:43 | 23944 | 28 | -56.6 | |||
| 2026-02-05T00:44 | 24244 | 27 | 326 | 2 | ||
| 2026-02-05T00:45 | 24480 | 26 | -56.3 | |||
| 2026-02-05T00:45 | 24629 | 26 | 195 | 1 | ||
| 2026-02-05T00:46 | 24886 | 25 | 63 | 3 | ||
| 2026-02-05T00:46 | 25092 | 24 | 49 | 4 | ||
| 2026-02-05T00:47 | 25231 | 23 | 108 | 7 | ||
| 2026-02-05T00:48 | 25629 | 22 | 137 | 9 | ||
| 2026-02-05T00:49 | 26023 | 21 | 162 | 10 | ||
| 2026-02-05T00:49 | 26215 | 20 | 190 | 10 | ||
| 2026-02-05T00:50 | 26409 | 19 | -54.2 | |||
| 2026-02-05T00:50 | 26478 | 19 | 150 | 11 | ||
| 2026-02-05T00:51 | 26785 | 18 | 160 | 10 | ||
| 2026-02-05T00:51 | 26966 | 18 | -53.2 | 171 | 13 | |
| 2026-02-05T00:51 | 27076 | 17 | 187 | 8 | ||
| 2026-02-05T00:52 | 27185 | 17 | 182 | 8 | ||
| 2026-02-05T00:52 | 27342 | 17 | 195 | 8 | ||
| 2026-02-05T00:53 | 27577 | 16 | 188 | 12 | ||
| 2026-02-05T00:53 | 27699 | 16 | 183 | 10 | ||
| 2026-02-05T00:53 | 27781 | 16 | 187 | 15 | ||
| 2026-02-05T00:54 | 27947 | 15 | 172 | 11 | ||
| 2026-02-05T00:54 | 28211 | 15 | -52.1 | |||
| 2026-02-05T00:55 | 28342 | 14 | 157 | 11 | ||
| 2026-02-05T00:55 | 28434 | 14 | 173 | 15 | ||
| 2026-02-05T00:55 | 28573 | 14 | 168 | 11 | ||
| 2026-02-05T00:56 | 28669 | 14 | 177 | 10 | ||
| 2026-02-05T00:56 | 28765 | 13 | -51.1 | 178 | 7 | |
| 2026-02-05T00:56 | 28915 | 13 | 163 | 6 | ||
| 2026-02-05T00:56 | 29017 | 13 | 141 | 5 | ||
| 2026-02-05T00:57 | 29065 | 13 | -46.4 | |||
| 2026-02-05T00:57 | 29117 | 13 | 151 | 6 | ||
| 2026-02-05T00:57 | 29438 | 12 | 141 | 11 | ||
| 2026-02-05T00:58 | 29607 | 12 | 105 | 6 | ||
| 2026-02-05T00:58 | 29777 | 12 | -46.5 | |||
| 2026-02-05T00:58 | 29836 | 11 | 115 | 7 | ||
| 2026-02-05T00:59 | 30012 | 11 | 123 | 10 | ||
| 2026-02-05T00:59 | 30193 | 11 | -45.2 | |||
| 2026-02-05T00:59 | 30255 | 11 | 113 | 13 | ||
| 2026-02-05T01:00 | 30445 | 10 | 127 | 11 | ||
| 2026-02-05T01:00 | 30576 | 10 | 135 | 16 | ||
| 2026-02-05T01:01 | 30780 | 10 | 139 | 14 | ||
| 2026-02-05T01:02 | 31126 | 9 | 123 | 14 | ||
| 2026-02-05T01:02 | 31172 | 9 | -42.2 | 120 | 12 | |
| 2026-02-05T11:33 | 26 | 1011 | 3.0 | -0.1 | 130 | 0 |
| 2026-02-05T11:33 | 31 | 1010 | 3.5 | -0.3 | 0 | 0 |
| 2026-02-05T11:33 | 47 | 1008 | 5.4 | -2.2 | ||
| 2026-02-05T11:33 | 72 | 1005 | 7.4 | -0.8 | ||
| 2026-02-05T11:33 | 94 | 1002 | 9.4 | -2.9 | ||
| 2026-02-05T11:33 | 143 | 997 | 9.5 | -4.1 | ||
| 2026-02-05T11:34 | 202 | 989 | 200 | 3 | ||
| 2026-02-05T11:34 | 289 | 979 | 176 | 5 | ||
| 2026-02-05T11:34 | 310 | 977 | 8.4 | -2.8 | ||
| 2026-02-05T11:34 | 391 | 967 | 7.7 | -0.5 | ||
| 2026-02-05T11:34 | 413 | 964 | 184 | 5 | ||
| 2026-02-05T11:35 | 576 | 946 | 6.4 | -3.8 | ||
| 2026-02-05T11:35 | 712 | 930 | 5.5 | -5.2 | ||
| 2026-02-05T11:35 | 722 | 929 | 197 | 5 | ||
| 2026-02-05T11:36 | 834 | 916 | 5.0 | -8.8 | ||
| 2026-02-05T11:36 | 873 | 912 | 6.0 | -12.6 | ||
| 2026-02-05T11:36 | 944 | 904 | 182 | 4 | ||
| 2026-02-05T11:36 | 997 | 898 | 183 | 2 | ||
| 2026-02-05T11:36 | 1026 | 895 | 5.0 | -12.5 | ||
| 2026-02-05T11:37 | 1103 | 886 | 5.1 | -13.8 | ||
| 2026-02-05T11:37 | 1113 | 885 | 204 | 3 | ||
| 2026-02-05T11:37 | 1183 | 878 | 5.4 | -14.6 | ||
| 2026-02-05T11:37 | 1199 | 876 | 201 | 6 | ||
| 2026-02-05T11:37 | 1257 | 870 | 5.0 | -12.9 | ||
| 2026-02-05T11:37 | 1290 | 866 | 5.5 | -12.0 | ||
| 2026-02-05T11:37 | 1335 | 862 | 242 | 6 | ||
| 2026-02-05T11:38 | 1507 | 844 | 3.4 | -12.1 | ||
| 2026-02-05T11:38 | 1623 | 832 | 239 | 8 | ||
| 2026-02-05T11:39 | 1928 | 801 | 254 | 9 | ||
| 2026-02-05T11:40 | 2229 | 771 | 260 | 9 | ||
| 2026-02-05T11:41 | 2416 | 753 | -4.6 | -14.7 | 250 | 8 |
| 2026-02-05T11:42 | 2744 | 722 | 278 | 12 | ||
| 2026-02-05T11:42 | 2805 | 716 | -7.6 | -20.1 | ||
| 2026-02-05T11:42 | 2910 | 707 | -7.5 | -24.2 | ||
| 2026-02-05T11:42 | 2959 | 702 | -6.5 | -28.9 | ||
| 2026-02-05T11:42 | 2985 | 700 | 284 | 19 | ||
| 2026-02-05T11:42 | 3006 | 698 | -6.6 | -31.4 | ||
| 2026-02-05T11:43 | 3111 | 689 | 283 | 22 | ||
| 2026-02-05T11:43 | 3207 | 680 | -7.1 | -35.9 | ||
| 2026-02-05T11:43 | 3348 | 668 | -7.9 | -45.8 | ||
| 2026-02-05T11:44 | 3433 | 661 | 286 | 20 | ||
| 2026-02-05T11:44 | 3443 | 660 | -8.2 | -46.1 | ||
| 2026-02-05T11:45 | 3715 | 637 | 284 | 23 | ||
| 2026-02-05T11:45 | 3811 | 629 | -11.1 | -45.5 | ||
| 2026-02-05T11:46 | 4059 | 609 | 284 | 23 | ||
| 2026-02-05T11:46 | 4129 | 604 | -12.5 | -58.3 | ||
| 2026-02-05T11:46 | 4219 | 596 | 290 | 25 | ||
| 2026-02-05T11:46 | 4323 | 588 | -13.8 | -59.1 | ||
| 2026-02-05T11:47 | 4482 | 576 | 281 | 23 | ||
| 2026-02-05T11:47 | 4567 | 570 | -15.0 | -59.9 | ||
| 2026-02-05T11:47 | 4682 | 561 | 283 | 27 | ||
| 2026-02-05T11:48 | 4815 | 551 | 284 | 24 | ||
| 2026-02-05T11:48 | 4986 | 539 | -18.1 | -56.4 | ||
| 2026-02-05T11:49 | 5170 | 526 | 280 | 25 | ||
| 2026-02-05T11:49 | 5356 | 512 | -21.1 | -55.2 | ||
| 2026-02-05T11:50 | 5446 | 506 | 277 | 27 | ||
| 2026-02-05T11:50 | 5733 | 487 | -22.9 | -56.5 | ||
| 2026-02-05T11:51 | 5821 | 481 | 274 | 29 | ||
| 2026-02-05T11:52 | 6184 | 458 | 272 | 34 | ||
| 2026-02-05T11:52 | 6513 | 437 | -29.2 | -61.1 | ||
| 2026-02-05T11:53 | 6564 | 434 | 276 | 36 | ||
| 2026-02-05T11:53 | 6842 | 417 | -31.4 | -56.0 | ||
| 2026-02-05T11:54 | 6946 | 411 | 267 | 35 | ||
| 2026-02-05T11:54 | 7011 | 408 | -32.3 | -53.7 | ||
| 2026-02-05T11:54 | 7088 | 403 | -32.9 | -45.9 | ||
| 2026-02-05T11:54 | 7158 | 399 | -33.6 | -46.2 | ||
| 2026-02-05T11:54 | 7215 | 396 | 269 | 38 | ||
| 2026-02-05T11:54 | 7228 | 395 | -34.2 | -39.9 | ||
| 2026-02-05T11:55 | 7436 | 384 | -35.9 | -42.1 | ||
| 2026-02-05T11:55 | 7480 | 381 | 268 | 38 | ||
| 2026-02-05T11:56 | 7679 | 370 | 263 | 39 | ||
| 2026-02-05T11:56 | 7796 | 364 | -39.1 | -41.7 | ||
| 2026-02-05T11:56 | 7909 | 358 | -40.0 | -42.6 | ||
| 2026-02-05T11:56 | 7999 | 353 | 267 | 41 | ||
| 2026-02-05T11:57 | 8118 | 347 | 268 | 41 | ||
| 2026-02-05T11:58 | 8476 | 329 | 266 | 42 | ||
| 2026-02-05T11:59 | 8827 | 312 | 265 | 41 | ||
| 2026-02-05T11:59 | 9007 | 304 | -50.0 | |||
| 2026-02-05T12:00 | 9157 | 297 | 265 | 43 | ||
| 2026-02-05T12:00 | 9325 | 289 | 265 | 45 | ||
| 2026-02-05T12:00 | 9354 | 288 | -52.6 | |||
| 2026-02-05T12:01 | 9665 | 274 | 270 | 46 | ||
| 2026-02-05T12:01 | 9775 | 270 | -55.1 | |||
| 2026-02-05T12:02 | 9841 | 267 | 278 | 47 | ||
| 2026-02-05T12:02 | 9928 | 263 | -54.6 | |||
| 2026-02-05T12:02 | 10065 | 258 | 280 | 50 | ||
| 2026-02-05T12:03 | 10230 | 251 | -56.8 | |||
| 2026-02-05T12:03 | 10403 | 244 | 282 | 51 | ||
| 2026-02-05T12:03 | 10415 | 244 | -55.6 | |||
| 2026-02-05T12:04 | 10546 | 239 | -54.7 | |||
| 2026-02-05T12:04 | 10653 | 235 | -52.7 | |||
| 2026-02-05T12:04 | 10699 | 233 | 284 | 57 | ||
| 2026-02-05T12:04 | 10797 | 230 | -53.2 | |||
| 2026-02-05T12:05 | 10870 | 227 | 285 | 57 | ||
| 2026-02-05T12:05 | 11027 | 222 | -52.5 | |||
| 2026-02-05T12:06 | 11197 | 216 | 284 | 56 | ||
| 2026-02-05T12:07 | 11461 | 208 | 279 | 56 | ||
| 2026-02-05T12:07 | 11539 | 205 | -48.8 | |||
| 2026-02-05T12:07 | 11627 | 202 | 279 | 62 | ||
| 2026-02-05T12:07 | 11679 | 201 | -48.6 | |||
| 2026-02-05T12:07 | 11765 | 198 | 281 | 61 | ||
| 2026-02-05T12:08 | 11936 | 193 | 279 | 58 | ||
| 2026-02-05T12:09 | 12115 | 188 | -48.1 | |||
| 2026-02-05T12:09 | 12250 | 184 | 276 | 58 | ||
| 2026-02-05T12:09 | 12404 | 180 | -49.1 | |||
| 2026-02-05T12:10 | 12562 | 176 | 272 | 60 | ||
| 2026-02-05T12:11 | 12876 | 167 | 270 | 58 | ||
| 2026-02-05T12:11 | 12887 | 167 | -50.0 | |||
| 2026-02-05T12:12 | 13168 | 160 | 271 | 58 | ||
| 2026-02-05T12:13 | 13453 | 153 | 274 | 59 | ||
| 2026-02-05T12:13 | 13581 | 150 | -51.0 | |||
| 2026-02-05T12:14 | 13715 | 147 | 275 | 59 | ||
| 2026-02-05T12:15 | 14013 | 141 | -52.4 | |||
| 2026-02-05T12:15 | 14029 | 140 | 275 | 52 | ||
| 2026-02-05T12:16 | 14349 | 133 | 272 | 50 | ||
| 2026-02-05T12:17 | 14629 | 128 | -56.3 | |||
| 2026-02-05T12:17 | 14678 | 127 | 268 | 52 | ||
| 2026-02-05T12:17 | 14784 | 125 | -56.0 | |||
| 2026-02-05T12:18 | 14974 | 121 | 269 | 54 | ||
| 2026-02-05T12:18 | 15065 | 119 | -56.8 | |||
| 2026-02-05T12:18 | 15175 | 117 | 271 | 51 | ||
| 2026-02-05T12:19 | 15330 | 114 | -57.2 | |||
| 2026-02-05T12:19 | 15376 | 113 | 276 | 53 | ||
| 2026-02-05T12:20 | 15698 | 108 | 283 | 53 | ||
| 2026-02-05T12:20 | 15709 | 108 | -59.3 | |||
| 2026-02-05T12:21 | 16003 | 103 | -60.1 | |||
| 2026-02-05T12:21 | 16038 | 102 | 284 | 44 | ||
| 2026-02-05T12:21 | 16123 | 101 | -60.0 | |||
| 2026-02-05T12:22 | 16308 | 98 | 294 | 37 | ||
| 2026-02-05T12:22 | 16322 | 98 | -58.3 | |||
| 2026-02-05T12:23 | 16673 | 92 | 282 | 26 | ||
| 2026-02-05T12:24 | 16944 | 88 | -61.0 | |||
| 2026-02-05T12:24 | 16994 | 88 | 265 | 26 | ||
| 2026-02-05T12:25 | 17315 | 83 | 264 | 32 | ||
| 2026-02-05T12:25 | 17435 | 82 | -63.5 | |||
| 2026-02-05T12:25 | 17549 | 80 | 269 | 34 | ||
| 2026-02-05T12:26 | 17826 | 77 | 259 | 23 | ||
| 2026-02-05T12:26 | 17866 | 76 | -61.2 | |||
| 2026-02-05T12:27 | 18159 | 73 | 240 | 26 | ||
| 2026-02-05T12:28 | 18463 | 69 | 255 | 28 | ||
| 2026-02-05T12:28 | 18516 | 68 | -64.6 | |||
| 2026-02-05T12:29 | 18698 | 66 | 259 | 22 | ||
| 2026-02-05T12:29 | 18717 | 66 | -63.8 | |||
| 2026-02-05T12:30 | 19000 | 63 | 259 | 26 | ||
| 2026-02-05T12:31 | 19299 | 60 | 260 | 25 | ||
| 2026-02-05T12:32 | 19536 | 58 | 256 | 19 | ||
| 2026-02-05T12:33 | 19854 | 55 | 253 | 16 | ||
| 2026-02-05T12:33 | 19943 | 54 | -63.8 | |||
| 2026-02-05T12:33 | 20047 | 53 | 243 | 17 | ||
| 2026-02-05T12:34 | 20081 | 53 | -62.6 | |||
| 2026-02-05T12:34 | 20139 | 53 | 247 | 17 | ||
| 2026-02-05T12:34 | 20201 | 52 | -60.9 | |||
| 2026-02-05T12:35 | 20405 | 50 | 246 | 11 | ||
| 2026-02-05T12:35 | 20416 | 50 | -61.7 | |||
| 2026-02-05T12:35 | 20567 | 49 | -60.3 | |||
| 2026-02-05T12:35 | 20630 | 49 | 272 | 17 | ||
| 2026-02-05T12:36 | 20800 | 47 | -58.0 | |||
| 2026-02-05T12:36 | 20907 | 46 | 282 | 12 | ||
| 2026-02-05T12:37 | 21255 | 44 | 280 | 11 | ||
| 2026-02-05T12:38 | 21548 | 42 | 270 | 7 | ||
| 2026-02-05T12:38 | 21684 | 41 | -58.1 | |||
| 2026-02-05T12:38 | 21731 | 41 | 230 | 8 | ||
| 2026-02-05T12:39 | 21826 | 40 | -57.1 | |||
| 2026-02-05T12:39 | 22084 | 39 | 254 | 13 | ||
| 2026-02-05T12:40 | 22300 | 37 | 261 | 7 | ||
| 2026-02-05T12:40 | 22471 | 36 | 258 | 7 | ||
| 2026-02-05T12:41 | 22702 | 35 | -57.9 | |||
| 2026-02-05T12:42 | 22832 | 34 | 290 | 9 | ||
| 2026-02-05T12:42 | 23035 | 33 | -57.4 | |||
| 2026-02-05T12:42 | 23077 | 33 | 265 | 5 | ||
| 2026-02-05T12:43 | 23191 | 32 | 235 | 2 | ||
| 2026-02-05T12:43 | 23292 | 32 | 172 | 3 | ||
| 2026-02-05T12:43 | 23371 | 31 | -55.1 | |||
| 2026-02-05T12:43 | 23415 | 31 | 163 | 3 | ||
| 2026-02-05T12:43 | 23495 | 31 | 173 | 3 | ||
| 2026-02-05T12:44 | 23684 | 30 | 217 | 6 | ||
| 2026-02-05T12:45 | 24029 | 28 | 244 | 13 | ||
| 2026-02-05T12:45 | 24074 | 28 | -58.0 | |||
| 2026-02-05T12:45 | 24187 | 28 | 239 | 7 | ||
| 2026-02-05T12:46 | 24350 | 27 | 226 | 8 | ||
| 2026-02-05T12:46 | 24536 | 26 | -57.9 | |||
| 2026-02-05T12:47 | 24712 | 25 | 245 | 5 | ||
| 2026-02-05T12:47 | 24912 | 25 | 250 | 6 | ||
| 2026-02-05T12:48 | 25069 | 24 | 279 | 5 | ||
| 2026-02-05T12:48 | 25202 | 24 | 243 | 6 | ||
| 2026-02-05T12:48 | 25369 | 23 | -53.5 | |||
| 2026-02-05T12:48 | 25397 | 23 | 291 | 3 | ||
| 2026-02-05T12:49 | 25621 | 22 | -51.9 | 158 | 2 | |
| 2026-02-05T23:33 | 26 | 1008 | 4.3 | -0.3 | 310 | 2 |
| 2026-02-05T23:33 | 31 | 1007 | 3.9 | -1.9 | 290 | 1 |
| 2026-02-05T23:33 | 57 | 1004 | 3.2 | -3.0 | ||
| 2026-02-05T23:33 | 63 | 1003 | 272 | 5 | ||
| 2026-02-05T23:33 | 108 | 998 | 3.1 | -3.7 | ||
| 2026-02-05T23:33 | 142 | 993 | 4.3 | -3.7 | 290 | 2 |
| 2026-02-05T23:33 | 168 | 990 | 4.7 | -3.8 | ||
| 2026-02-05T23:34 | 199 | 987 | 6.8 | -4.9 | ||
| 2026-02-05T23:34 | 215 | 985 | 253 | 3 | ||
| 2026-02-05T23:34 | 343 | 969 | 7.0 | -6.7 | ||
| 2026-02-05T23:34 | 403 | 962 | 7.6 | -6.9 | 269 | 6 |
| 2026-02-05T23:35 | 521 | 949 | 259 | 2 | ||
| 2026-02-05T23:35 | 583 | 941 | 6.5 | -8.2 | ||
| 2026-02-05T23:35 | 676 | 931 | 14 | 3 | ||
| 2026-02-05T23:35 | 792 | 918 | 342 | 3 | ||
| 2026-02-05T23:36 | 818 | 915 | 5.6 | -9.4 | ||
| 2026-02-05T23:36 | 1005 | 894 | 322 | 7 | ||
| 2026-02-05T23:37 | 1151 | 878 | 4.2 | -10.7 | ||
| 2026-02-05T23:37 | 1231 | 869 | 282 | 7 | ||
| 2026-02-05T23:37 | 1304 | 862 | 3.5 | -12.5 | ||
| 2026-02-05T23:37 | 1393 | 852 | 256 | 5 | ||
| 2026-02-05T23:37 | 1438 | 847 | 2.9 | -14.7 | ||
| 2026-02-05T23:38 | 1519 | 839 | 231 | 8 | ||
| 2026-02-05T23:38 | 1645 | 826 | 3.8 | -23.1 | ||
| 2026-02-05T23:39 | 1798 | 811 | 246 | 12 | ||
| 2026-02-05T23:39 | 1950 | 796 | 241 | 9 | ||
| 2026-02-05T23:39 | 2018 | 789 | 2.0 | -27.7 | ||
| 2026-02-05T23:40 | 2274 | 764 | 261 | 12 | ||
| 2026-02-05T23:40 | 2407 | 751 | -0.6 | -26.6 | ||
| 2026-02-05T23:41 | 2606 | 733 | 264 | 18 | ||
| 2026-02-05T23:41 | 2645 | 729 | -2.0 | -26.8 | ||
| 2026-02-05T23:42 | 2891 | 707 | -3.2 | -31.7 | ||
| 2026-02-05T23:42 | 2947 | 702 | 254 | 18 | ||
| 2026-02-05T23:43 | 3266 | 674 | 265 | 19 | ||
| 2026-02-05T23:44 | 3412 | 661 | -7.5 | -32.1 | ||
| 2026-02-05T23:44 | 3583 | 647 | 260 | 20 | ||
| 2026-02-05T23:45 | 3890 | 621 | 251 | 22 | ||
| 2026-02-05T23:46 | 4212 | 596 | 256 | 24 | ||
| 2026-02-05T23:46 | 4302 | 589 | -14.4 | -53.9 | ||
| 2026-02-05T23:47 | 4541 | 570 | 254 | 26 | ||
| 2026-02-05T23:48 | 4874 | 545 | -18.7 | -56.8 | ||
| 2026-02-05T23:48 | 4886 | 545 | 257 | 26 | ||
| 2026-02-05T23:49 | 5104 | 529 | -20.0 | -47.1 | ||
| 2026-02-05T23:49 | 5231 | 520 | 260 | 29 | ||
| 2026-02-05T23:49 | 5248 | 519 | -21.0 | -34.4 | ||
| 2026-02-05T23:49 | 5357 | 511 | -21.8 | -35.4 | ||
| 2026-02-05T23:50 | 5401 | 508 | -21.5 | -25.7 | ||
| 2026-02-05T23:50 | 5446 | 505 | 257 | 31 | ||
| 2026-02-05T23:50 | 5513 | 500 | -21.8 | -23.6 | ||
| 2026-02-05T23:50 | 5585 | 496 | 258 | 34 | ||
| 2026-02-05T23:51 | 5899 | 475 | 264 | 34 | ||
| 2026-02-05T23:51 | 6027 | 466 | -25.1 | -28.0 | ||
| 2026-02-05T23:52 | 6148 | 459 | -25.5 | -28.2 | ||
| 2026-02-05T23:52 | 6175 | 457 | 262 | 39 | ||
| 2026-02-05T23:52 | 6223 | 454 | -25.3 | -28.9 | ||
| 2026-02-05T23:52 | 6303 | 449 | 264 | 43 | ||
| 2026-02-05T23:53 | 6625 | 430 | 263 | 43 | ||
| 2026-02-05T23:54 | 6918 | 412 | -31.3 | -34.4 | ||
| 2026-02-05T23:54 | 6939 | 411 | 260 | 43 | ||
| 2026-02-05T23:55 | 7261 | 393 | 263 | 44 | ||
| 2026-02-05T23:56 | 7392 | 385 | -34.4 | -37.7 | ||
| 2026-02-05T23:56 | 7536 | 377 | 267 | 43 | ||
| 2026-02-05T23:57 | 7689 | 369 | -36.9 | -40.7 | ||
| 2026-02-05T23:57 | 7719 | 368 | 265 | 43 | ||
| 2026-02-05T23:57 | 7901 | 358 | -37.7 | -41.0 | ||
| 2026-02-05T23:58 | 8084 | 349 | 261 | 47 | ||
| 2026-02-05T23:58 | 8166 | 344 | -40.0 | -43.5 | ||
| 2026-02-05T23:58 | 8278 | 339 | 262 | 48 | ||
| 2026-02-05T23:58 | 8288 | 338 | -40.9 | |||
| 2026-02-05T23:59 | 8461 | 330 | -42.1 | |||
| 2026-02-05T23:59 | 8558 | 325 | 266 | 50 | ||
| 2026-02-05T23:59 | 8683 | 319 | -43.2 | |||
| 2026-02-05T23:59 | 8694 | 319 | 268 | 53 | ||
| 2026-02-06T00:00 | 9026 | 303 | 269 | 57 | ||
| 2026-02-06T00:01 | 9169 | 297 | -47.0 | |||
| 2026-02-06T00:01 | 9371 | 288 | 272 | 60 | ||
| 2026-02-06T00:02 | 9564 | 279 | 270 | 63 | ||
| 2026-02-06T00:03 | 9891 | 266 | -51.1 | |||
| 2026-02-06T00:03 | 9927 | 264 | 273 | 68 | ||
| 2026-02-06T00:04 | 10121 | 257 | 274 | 72 | ||
| 2026-02-06T00:04 | 10389 | 246 | 274 | 75 | ||
| 2026-02-06T00:05 | 10480 | 243 | -51.1 | |||
| 2026-02-06T00:05 | 10750 | 233 | 273 | 81 | ||
| 2026-02-06T00:05 | 10784 | 232 | -50.4 | |||
| 2026-02-06T00:06 | 10954 | 226 | -51.3 | |||
| 2026-02-06T00:06 | 11067 | 222 | 277 | 79 | ||
| 2026-02-06T00:07 | 11245 | 216 | -50.4 | |||
| 2026-02-06T00:07 | 11303 | 214 | 273 | 81 | ||
| 2026-02-06T00:08 | 11519 | 207 | 274 | 87 | ||
| 2026-02-06T00:08 | 11667 | 202 | -50.7 | |||
| 2026-02-06T00:09 | 11877 | 196 | 277 | 78 | ||
| 2026-02-06T00:09 | 12013 | 192 | -52.0 | |||
| 2026-02-06T00:10 | 12235 | 185 | 277 | 67 | ||
| 2026-02-06T00:10 | 12416 | 180 | -52.7 | |||
| 2026-02-06T00:10 | 12509 | 178 | 274 | 67 | ||
| 2026-02-06T00:11 | 12852 | 168 | 270 | 71 | ||
| 2026-02-06T00:12 | 13113 | 162 | 273 | 72 | ||
| 2026-02-06T00:12 | 13134 | 161 | -55.2 | |||
| 2026-02-06T00:13 | 13226 | 159 | 273 | 75 | ||
| 2026-02-06T00:13 | 13356 | 156 | 272 | 71 | ||
| 2026-02-06T00:14 | 13561 | 151 | -55.9 | |||
| 2026-02-06T00:14 | 13647 | 149 | 272 | 65 | ||
| 2026-02-06T00:15 | 13933 | 142 | 270 | 64 | ||
| 2026-02-06T00:16 | 14202 | 136 | 269 | 62 | ||
| 2026-02-06T00:16 | 14293 | 134 | -58.6 | |||
| 2026-02-06T00:17 | 14470 | 131 | 268 | 60 | ||
| 2026-02-06T00:18 | 14728 | 125 | -59.0 | |||
| 2026-02-06T00:18 | 14742 | 125 | 272 | 60 | ||
| 2026-02-06T00:19 | 14949 | 121 | -59.2 | |||
| 2026-02-06T00:19 | 15018 | 120 | 273 | 54 | ||
| 2026-02-06T00:20 | 15284 | 115 | 278 | 55 | ||
| 2026-02-06T00:20 | 15301 | 114 | -60.1 | |||
| 2026-02-06T00:21 | 15461 | 111 | -59.5 | |||
| 2026-02-06T00:21 | 15537 | 110 | -58.5 | |||
| 2026-02-06T00:21 | 15600 | 109 | 268 | 45 | ||
| 2026-02-06T00:22 | 15769 | 106 | 266 | 46 | ||
| 2026-02-06T00:23 | 16111 | 100 | 263 | 50 | ||
| 2026-02-06T00:23 | 16313 | 97 | -65.1 | |||
| 2026-02-06T00:23 | 16370 | 96 | 268 | 52 | ||
| 2026-02-06T00:24 | 16631 | 92 | 275 | 40 | ||
| 2026-02-06T00:25 | 16834 | 89 | -61.9 | |||
| 2026-02-06T00:25 | 16919 | 88 | 279 | 38 | ||
| 2026-02-06T00:26 | 17155 | 85 | -61.1 | |||
| 2026-02-06T00:26 | 17235 | 84 | 279 | 27 | ||
| 2026-02-06T00:27 | 17546 | 79 | 257 | 24 | ||
| 2026-02-06T00:28 | 17815 | 76 | 268 | 27 | ||
| 2026-02-06T00:29 | 17956 | 74 | -64.0 | |||
| 2026-02-06T00:29 | 18081 | 73 | 263 | 23 | ||
| 2026-02-06T00:30 | 18122 | 72 | -63.5 | |||
| 2026-02-06T00:30 | 18374 | 69 | 258 | 26 | ||
| 2026-02-06T00:31 | 18582 | 67 | 263 | 25 | ||
| 2026-02-06T00:32 | 18737 | 65 | 269 | 25 | ||
| 2026-02-06T00:32 | 18823 | 65 | -62.7 | |||
| 2026-02-06T00:32 | 18891 | 64 | 276 | 28 | ||
| 2026-02-06T00:32 | 19007 | 63 | -61.3 | |||
| 2026-02-06T00:33 | 19220 | 61 | 288 | 21 | ||
| 2026-02-06T00:34 | 19532 | 58 | 280 | 14 | ||
| 2026-02-06T00:35 | 19796 | 55 | 268 | 15 | ||
| 2026-02-06T00:36 | 20104 | 52 | 277 | 15 | ||
| 2026-02-06T00:36 | 20296 | 51 | -64.3 | |||
| 2026-02-06T00:37 | 20396 | 50 | 280 | 9 | ||
| 2026-02-06T00:38 | 20680 | 48 | -64.0 | |||
| 2026-02-06T00:38 | 20706 | 48 | 279 | 17 | ||
| 2026-02-06T00:39 | 21014 | 45 | 286 | 12 | ||
| 2026-02-06T00:39 | 21028 | 45 | -59.0 | |||
| 2026-02-06T00:39 | 21225 | 44 | -58.9 | |||
| 2026-02-06T00:40 | 21265 | 43 | 235 | 15 | ||
| 2026-02-06T00:41 | 21565 | 41 | 270 | 15 | ||
| 2026-02-06T00:41 | 21579 | 41 | -55.6 | |||
| 2026-02-06T00:42 | 21878 | 39 | 274 | 5 | ||
| 2026-02-06T00:42 | 22172 | 38 | 234 | 8 | ||
| 2026-02-06T00:43 | 22497 | 36 | 257 | 16 | ||
| 2026-02-06T00:44 | 22587 | 35 | -58.3 | |||
| 2026-02-06T00:44 | 22696 | 35 | 277 | 11 | ||
| 2026-02-06T00:44 | 22714 | 35 | -55.9 | |||
| 2026-02-06T00:45 | 22843 | 34 | 264 | 8 | ||
| 2026-02-06T00:45 | 23039 | 33 | -57.2 | 247 | 10 | |
| 2026-02-06T11:30 | 26 | 1007 | 6.2 | -1.5 | 20 | 1 |
| 2026-02-06T11:30 | 29 | 1007 | 6.2 | -2.4 | 0 | 0 |
| 2026-02-06T11:30 | 56 | 1004 | 28 | 3 | ||
| 2026-02-06T11:30 | 65 | 1003 | 6.8 | -2.9 | ||
| 2026-02-06T11:30 | 115 | 996 | 6.7 | -3.3 | ||
| 2026-02-06T11:31 | 166 | 990 | 8.8 | -1.9 | ||
| 2026-02-06T11:31 | 231 | 983 | 27 | 7 | ||
| 2026-02-06T11:31 | 381 | 965 | 6.8 | -0.2 | ||
| 2026-02-06T11:32 | 474 | 954 | 6.2 | 1.7 | ||
| 2026-02-06T11:32 | 542 | 946 | 78 | 6 | ||
| 2026-02-06T11:32 | 666 | 932 | 5.0 | 2.2 | ||
| 2026-02-06T11:32 | 738 | 924 | 91 | 5 | ||
| 2026-02-06T11:33 | 858 | 910 | 4.2 | -1.2 | ||
| 2026-02-06T11:33 | 864 | 909 | 120 | 1 | ||
| 2026-02-06T11:33 | 968 | 898 | 4.2 | -5.3 | ||
| 2026-02-06T11:33 | 1037 | 890 | 254 | 3 | ||
| 2026-02-06T11:34 | 1377 | 854 | 303 | 6 | ||
| 2026-02-06T11:35 | 1692 | 820 | 302 | 8 | ||
| 2026-02-06T11:35 | 1730 | 816 | -2.2 | -7.7 | ||
| 2026-02-06T11:36 | 1808 | 808 | -2.1 | -7.8 | ||
| 2026-02-06T11:36 | 1934 | 795 | 269 | 6 | ||
| 2026-02-06T11:36 | 1973 | 792 | -2.4 | -8.7 | ||
| 2026-02-06T11:36 | 2064 | 783 | 236 | 8 | ||
| 2026-02-06T11:36 | 2121 | 777 | -2.6 | -11.1 | ||
| 2026-02-06T11:37 | 2395 | 751 | 257 | 10 | ||
| 2026-02-06T11:38 | 2518 | 739 | -5.9 | -13.9 | ||
| 2026-02-06T11:38 | 2705 | 721 | 257 | 13 | ||
| 2026-02-06T11:39 | 2841 | 709 | -7.9 | -17.5 | ||
| 2026-02-06T11:39 | 3046 | 690 | 267 | 17 | ||
| 2026-02-06T11:40 | 3368 | 662 | -12.4 | -21.4 | ||
| 2026-02-06T11:40 | 3419 | 657 | 276 | 23 | ||
| 2026-02-06T11:40 | 3482 | 652 | -12.6 | -25.9 | ||
| 2026-02-06T11:41 | 3592 | 643 | -12.0 | -32.1 | ||
| 2026-02-06T11:41 | 3791 | 626 | 272 | 26 | ||
| 2026-02-06T11:42 | 4021 | 607 | -14.0 | -34.4 | ||
| 2026-02-06T11:42 | 4126 | 599 | 262 | 28 | ||
| 2026-02-06T11:42 | 4137 | 598 | -14.8 | -29.3 | ||
| 2026-02-06T11:43 | 4341 | 582 | -16.1 | -24.6 | ||
| 2026-02-06T11:43 | 4471 | 572 | 264 | 31 | ||
| 2026-02-06T11:43 | 4536 | 567 | -17.1 | -27.5 | ||
| 2026-02-06T11:44 | 4666 | 557 | -17.9 | -24.6 | ||
| 2026-02-06T11:44 | 4803 | 547 | -17.8 | -25.9 | ||
| 2026-02-06T11:44 | 4827 | 546 | 264 | 37 | ||
| 2026-02-06T11:44 | 4851 | 544 | -17.6 | -28.0 | ||
| 2026-02-06T11:45 | 4911 | 540 | -17.6 | -30.7 | ||
| 2026-02-06T11:45 | 5171 | 521 | 267 | 43 | ||
| 2026-02-06T11:46 | 5301 | 512 | -20.3 | -27.6 | ||
| 2026-02-06T11:46 | 5385 | 506 | -20.7 | -29.1 | ||
| 2026-02-06T11:46 | 5525 | 496 | 262 | 45 | ||
| 2026-02-06T11:46 | 5575 | 493 | -22.4 | -34.3 | ||
| 2026-02-06T11:47 | 5668 | 487 | -22.5 | -44.2 | ||
| 2026-02-06T11:47 | 5902 | 472 | 260 | 45 | ||
| 2026-02-06T11:47 | 5921 | 470 | -24.0 | -41.7 | ||
| 2026-02-06T11:48 | 6276 | 448 | 263 | 43 | ||
| 2026-02-06T11:48 | 6335 | 444 | -27.6 | -53.0 | ||
| 2026-02-06T11:49 | 6559 | 430 | -29.2 | -47.1 | ||
| 2026-02-06T11:49 | 6639 | 426 | 264 | 44 |
Only the first 2000 rows were shown. To view the complete dataset, download it as tab-delimited text. You can still view the full matrix in your browser, but be aware that this may crash the browser due to the huge size.
